<?xml version="1.0" encoding="UTF-8" standalone="no" ?>
<gpx xmlns="http://www.topografix.com/GPX/1/1" xmlns:xsi="http://www.w3.org/2001/XMLSchema-instance" xsi:schemaLocation="http://www.topografix.com/GPX/1/1 http://www.topografix.com/GPX/1/1/gpx.xsd" version="1.1" creator="VisuGPX - https://www.visugpx.com">
  <metadata>
    <name>Activité Randonnée TwoNav</name>
    <desc><![CDATA[2023-04-08_093359.trk]]></desc>
  </metadata>
  <trk>
    <name><![CDATA[Activité Randonnée TwoNav_1]]></name>
    <trkseg>
      <trkpt lat="48.236" lon="6.68088">
        <ele>414</ele>
        <time>2023-04-08T07:33:59Z</time>
      </trkpt>
      <trkpt lat="48.23599" lon="6.68098">
        <ele>414</ele>
        <time>2023-04-08T07:34:00Z</time>
      </trkpt>
      <trkpt lat="48.23598" lon="6.68107">
        <ele>414.1</ele>
        <time>2023-04-08T07:34:09Z</time>
      </trkpt>
      <trkpt lat="48.23598" lon="6.68116">
        <ele>414.2</ele>
        <time>2023-04-08T07:34:17Z</time>
      </trkpt>
      <trkpt lat="48.23597" lon="6.68125">
        <ele>414.3</ele>
        <time>2023-04-08T07:34:25Z</time>
      </trkpt>
      <trkpt lat="48.23597" lon="6.68134">
        <ele>414.4</ele>
        <time>2023-04-08T07:34:35Z</time>
      </trkpt>
      <trkpt lat="48.23596" lon="6.68143">
        <ele>414.4</ele>
        <time>2023-04-08T07:34:35Z</time>
      </trkpt>
      <trkpt lat="48.23595" lon="6.68157">
        <ele>414.6</ele>
        <time>2023-04-08T07:34:45Z</time>
      </trkpt>
      <trkpt lat="48.23598" lon="6.68171">
        <ele>414.7</ele>
        <time>2023-04-08T07:34:54Z</time>
      </trkpt>
      <trkpt lat="48.236" lon="6.68184">
        <ele>414.8</ele>
        <time>2023-04-08T07:35:01Z</time>
      </trkpt>
      <trkpt lat="48.236" lon="6.682">
        <ele>414.9</ele>
        <time>2023-04-08T07:35:09Z</time>
      </trkpt>
      <trkpt lat="48.23597" lon="6.68214">
        <ele>415</ele>
        <time>2023-04-08T07:35:16Z</time>
      </trkpt>
      <trkpt lat="48.23594" lon="6.68227">
        <ele>415.1</ele>
        <time>2023-04-08T07:35:24Z</time>
      </trkpt>
      <trkpt lat="48.23592" lon="6.68242">
        <ele>415.2</ele>
        <time>2023-04-08T07:35:30Z</time>
      </trkpt>
      <trkpt lat="48.23586" lon="6.68253">
        <ele>415.3</ele>
        <time>2023-04-08T07:35:38Z</time>
      </trkpt>
      <trkpt lat="48.23587" lon="6.68268">
        <ele>415.4</ele>
        <time>2023-04-08T07:35:46Z</time>
      </trkpt>
      <trkpt lat="48.23588" lon="6.68282">
        <ele>415.5</ele>
        <time>2023-04-08T07:35:58Z</time>
      </trkpt>
      <trkpt lat="48.23589" lon="6.68298">
        <ele>415.7</ele>
        <time>2023-04-08T07:36:09Z</time>
      </trkpt>
      <trkpt lat="48.23588" lon="6.68312">
        <ele>415.8</ele>
        <time>2023-04-08T07:36:20Z</time>
      </trkpt>
      <trkpt lat="48.23583" lon="6.68324">
        <ele>415.9</ele>
        <time>2023-04-08T07:36:27Z</time>
      </trkpt>
      <trkpt lat="48.23577" lon="6.68334">
        <ele>416.1</ele>
        <time>2023-04-08T07:36:34Z</time>
      </trkpt>
      <trkpt lat="48.2357" lon="6.68344">
        <ele>416.4</ele>
        <time>2023-04-08T07:36:41Z</time>
      </trkpt>
      <trkpt lat="48.23561" lon="6.68355">
        <ele>416.8</ele>
        <time>2023-04-08T07:36:46Z</time>
      </trkpt>
      <trkpt lat="48.23552" lon="6.68364">
        <ele>417.2</ele>
        <time>2023-04-08T07:36:51Z</time>
      </trkpt>
      <trkpt lat="48.23544" lon="6.68374">
        <ele>417.7</ele>
        <time>2023-04-08T07:36:56Z</time>
      </trkpt>
      <trkpt lat="48.23538" lon="6.68385">
        <ele>418.1</ele>
        <time>2023-04-08T07:37:04Z</time>
      </trkpt>
      <trkpt lat="48.2353" lon="6.68393">
        <ele>418.7</ele>
        <time>2023-04-08T07:37:12Z</time>
      </trkpt>
      <trkpt lat="48.23521" lon="6.68399">
        <ele>419.3</ele>
        <time>2023-04-08T07:37:25Z</time>
      </trkpt>
      <trkpt lat="48.23513" lon="6.68404">
        <ele>419.8</ele>
        <time>2023-04-08T07:37:33Z</time>
      </trkpt>
      <trkpt lat="48.23503" lon="6.68409">
        <ele>420.3</ele>
        <time>2023-04-08T07:37:38Z</time>
      </trkpt>
      <trkpt lat="48.23493" lon="6.68415">
        <ele>420.8</ele>
        <time>2023-04-08T07:37:43Z</time>
      </trkpt>
      <trkpt lat="48.23484" lon="6.68422">
        <ele>421.3</ele>
        <time>2023-04-08T07:37:47Z</time>
      </trkpt>
      <trkpt lat="48.23474" lon="6.68429">
        <ele>421.9</ele>
        <time>2023-04-08T07:37:56Z</time>
      </trkpt>
      <trkpt lat="48.23465" lon="6.68433">
        <ele>422.6</ele>
        <time>2023-04-08T07:38:05Z</time>
      </trkpt>
      <trkpt lat="48.23455" lon="6.68438">
        <ele>423.4</ele>
        <time>2023-04-08T07:38:13Z</time>
      </trkpt>
      <trkpt lat="48.23446" lon="6.68443">
        <ele>424.4</ele>
        <time>2023-04-08T07:38:22Z</time>
      </trkpt>
      <trkpt lat="48.23437" lon="6.68449">
        <ele>425.4</ele>
        <time>2023-04-08T07:38:31Z</time>
      </trkpt>
      <trkpt lat="48.23428" lon="6.68453">
        <ele>426.7</ele>
        <time>2023-04-08T07:38:42Z</time>
      </trkpt>
      <trkpt lat="48.2342" lon="6.68461">
        <ele>428</ele>
        <time>2023-04-08T07:38:49Z</time>
      </trkpt>
      <trkpt lat="48.2341" lon="6.68465">
        <ele>429.3</ele>
        <time>2023-04-08T07:38:56Z</time>
      </trkpt>
      <trkpt lat="48.234" lon="6.68466">
        <ele>430.6</ele>
        <time>2023-04-08T07:39:03Z</time>
      </trkpt>
      <trkpt lat="48.23391" lon="6.6847">
        <ele>432</ele>
        <time>2023-04-08T07:39:10Z</time>
      </trkpt>
      <trkpt lat="48.23382" lon="6.68473">
        <ele>433.5</ele>
        <time>2023-04-08T07:39:21Z</time>
      </trkpt>
      <trkpt lat="48.23372" lon="6.68476">
        <ele>434.9</ele>
        <time>2023-04-08T07:39:27Z</time>
      </trkpt>
      <trkpt lat="48.23363" lon="6.68479">
        <ele>436.3</ele>
        <time>2023-04-08T07:39:35Z</time>
      </trkpt>
      <trkpt lat="48.23354" lon="6.68484">
        <ele>437.5</ele>
        <time>2023-04-08T07:39:41Z</time>
      </trkpt>
      <trkpt lat="48.23345" lon="6.68486">
        <ele>438.6</ele>
        <time>2023-04-08T07:39:47Z</time>
      </trkpt>
      <trkpt lat="48.23336" lon="6.68491">
        <ele>439.7</ele>
        <time>2023-04-08T07:39:55Z</time>
      </trkpt>
      <trkpt lat="48.23327" lon="6.68495">
        <ele>440.9</ele>
        <time>2023-04-08T07:40:03Z</time>
      </trkpt>
      <trkpt lat="48.23318" lon="6.68499">
        <ele>442.2</ele>
        <time>2023-04-08T07:40:10Z</time>
      </trkpt>
      <trkpt lat="48.23309" lon="6.68504">
        <ele>443.4</ele>
        <time>2023-04-08T07:40:18Z</time>
      </trkpt>
      <trkpt lat="48.23299" lon="6.6851">
        <ele>444.6</ele>
        <time>2023-04-08T07:40:26Z</time>
      </trkpt>
      <trkpt lat="48.23291" lon="6.68517">
        <ele>445.5</ele>
        <time>2023-04-08T07:40:33Z</time>
      </trkpt>
      <trkpt lat="48.23282" lon="6.68524">
        <ele>446.5</ele>
        <time>2023-04-08T07:40:41Z</time>
      </trkpt>
      <trkpt lat="48.23274" lon="6.68533">
        <ele>447.5</ele>
        <time>2023-04-08T07:40:48Z</time>
      </trkpt>
      <trkpt lat="48.2327" lon="6.68537">
        <ele>448</ele>
        <time>2023-04-08T07:40:54Z</time>
      </trkpt>
      <trkpt lat="48.23269" lon="6.68537">
        <ele>448.1</ele>
        <time>2023-04-08T07:40:55Z</time>
      </trkpt>
      <trkpt lat="48.23262" lon="6.68546">
        <ele>449.1</ele>
        <time>2023-04-08T07:41:02Z</time>
      </trkpt>
      <trkpt lat="48.23253" lon="6.68552">
        <ele>450</ele>
        <time>2023-04-08T07:41:10Z</time>
      </trkpt>
      <trkpt lat="48.2325" lon="6.68554">
        <ele>450.2</ele>
        <time>2023-04-08T07:41:17Z</time>
      </trkpt>
      <trkpt lat="48.23249" lon="6.68555">
        <ele>450.3</ele>
        <time>2023-04-08T07:41:20Z</time>
      </trkpt>
      <trkpt lat="48.23243" lon="6.68566">
        <ele>451.1</ele>
        <time>2023-04-08T07:41:29Z</time>
      </trkpt>
      <trkpt lat="48.23235" lon="6.68576">
        <ele>452</ele>
        <time>2023-04-08T07:41:37Z</time>
      </trkpt>
      <trkpt lat="48.23228" lon="6.68586">
        <ele>452.7</ele>
        <time>2023-04-08T07:41:45Z</time>
      </trkpt>
      <trkpt lat="48.23222" lon="6.68596">
        <ele>453.3</ele>
        <time>2023-04-08T07:41:51Z</time>
      </trkpt>
      <trkpt lat="48.23215" lon="6.68606">
        <ele>453.8</ele>
        <time>2023-04-08T07:41:58Z</time>
      </trkpt>
      <trkpt lat="48.23207" lon="6.68614">
        <ele>454.3</ele>
        <time>2023-04-08T07:42:05Z</time>
      </trkpt>
      <trkpt lat="48.23199" lon="6.68622">
        <ele>454.8</ele>
        <time>2023-04-08T07:42:14Z</time>
      </trkpt>
      <trkpt lat="48.23191" lon="6.6863">
        <ele>455.5</ele>
        <time>2023-04-08T07:42:21Z</time>
      </trkpt>
      <trkpt lat="48.23181" lon="6.68637">
        <ele>456.3</ele>
        <time>2023-04-08T07:42:29Z</time>
      </trkpt>
      <trkpt lat="48.23172" lon="6.68643">
        <ele>457.3</ele>
        <time>2023-04-08T07:42:35Z</time>
      </trkpt>
      <trkpt lat="48.23164" lon="6.68648">
        <ele>458.2</ele>
        <time>2023-04-08T07:42:41Z</time>
      </trkpt>
      <trkpt lat="48.23155" lon="6.68651">
        <ele>459.2</ele>
        <time>2023-04-08T07:42:49Z</time>
      </trkpt>
      <trkpt lat="48.23146" lon="6.68656">
        <ele>460.2</ele>
        <time>2023-04-08T07:42:58Z</time>
      </trkpt>
      <trkpt lat="48.23137" lon="6.68661">
        <ele>461.2</ele>
        <time>2023-04-08T07:43:05Z</time>
      </trkpt>
      <trkpt lat="48.23128" lon="6.68667">
        <ele>462.3</ele>
        <time>2023-04-08T07:43:12Z</time>
      </trkpt>
      <trkpt lat="48.2312" lon="6.68675">
        <ele>463.4</ele>
        <time>2023-04-08T07:43:19Z</time>
      </trkpt>
      <trkpt lat="48.23113" lon="6.68685">
        <ele>464.4</ele>
        <time>2023-04-08T07:43:28Z</time>
      </trkpt>
      <trkpt lat="48.23106" lon="6.68696">
        <ele>465.4</ele>
        <time>2023-04-08T07:43:35Z</time>
      </trkpt>
      <trkpt lat="48.231" lon="6.68706">
        <ele>466.4</ele>
        <time>2023-04-08T07:43:43Z</time>
      </trkpt>
      <trkpt lat="48.23092" lon="6.68714">
        <ele>467.4</ele>
        <time>2023-04-08T07:43:51Z</time>
      </trkpt>
      <trkpt lat="48.23084" lon="6.68722">
        <ele>468.4</ele>
        <time>2023-04-08T07:43:58Z</time>
      </trkpt>
      <trkpt lat="48.23076" lon="6.6873">
        <ele>469.4</ele>
        <time>2023-04-08T07:44:06Z</time>
      </trkpt>
      <trkpt lat="48.23068" lon="6.68737">
        <ele>470.3</ele>
        <time>2023-04-08T07:44:13Z</time>
      </trkpt>
      <trkpt lat="48.23059" lon="6.68744">
        <ele>471.2</ele>
        <time>2023-04-08T07:44:22Z</time>
      </trkpt>
      <trkpt lat="48.23051" lon="6.6875">
        <ele>472</ele>
        <time>2023-04-08T07:44:33Z</time>
      </trkpt>
      <trkpt lat="48.23042" lon="6.68753">
        <ele>472.8</ele>
        <time>2023-04-08T07:44:39Z</time>
      </trkpt>
      <trkpt lat="48.23033" lon="6.68757">
        <ele>473.6</ele>
        <time>2023-04-08T07:44:45Z</time>
      </trkpt>
      <trkpt lat="48.23024" lon="6.68761">
        <ele>474.2</ele>
        <time>2023-04-08T07:44:58Z</time>
      </trkpt>
      <trkpt lat="48.23015" lon="6.68766">
        <ele>474.8</ele>
        <time>2023-04-08T07:45:05Z</time>
      </trkpt>
      <trkpt lat="48.23006" lon="6.6877">
        <ele>475.5</ele>
        <time>2023-04-08T07:45:11Z</time>
      </trkpt>
      <trkpt lat="48.22996" lon="6.68775">
        <ele>476.2</ele>
        <time>2023-04-08T07:45:18Z</time>
      </trkpt>
      <trkpt lat="48.22986" lon="6.68781">
        <ele>477</ele>
        <time>2023-04-08T07:45:25Z</time>
      </trkpt>
      <trkpt lat="48.22977" lon="6.68786">
        <ele>477.7</ele>
        <time>2023-04-08T07:45:32Z</time>
      </trkpt>
      <trkpt lat="48.22968" lon="6.68791">
        <ele>478.3</ele>
        <time>2023-04-08T07:45:38Z</time>
      </trkpt>
      <trkpt lat="48.22959" lon="6.68795">
        <ele>478.9</ele>
        <time>2023-04-08T07:45:46Z</time>
      </trkpt>
      <trkpt lat="48.22949" lon="6.68798">
        <ele>479.4</ele>
        <time>2023-04-08T07:45:54Z</time>
      </trkpt>
      <trkpt lat="48.22939" lon="6.68802">
        <ele>479.9</ele>
        <time>2023-04-08T07:46:02Z</time>
      </trkpt>
      <trkpt lat="48.22929" lon="6.68805">
        <ele>480.4</ele>
        <time>2023-04-08T07:46:10Z</time>
      </trkpt>
      <trkpt lat="48.2292" lon="6.68811">
        <ele>480.7</ele>
        <time>2023-04-08T07:46:17Z</time>
      </trkpt>
      <trkpt lat="48.22911" lon="6.68818">
        <ele>480.9</ele>
        <time>2023-04-08T07:46:25Z</time>
      </trkpt>
      <trkpt lat="48.22902" lon="6.68825">
        <ele>481.2</ele>
        <time>2023-04-08T07:46:33Z</time>
      </trkpt>
      <trkpt lat="48.22894" lon="6.68831">
        <ele>481.3</ele>
        <time>2023-04-08T07:46:40Z</time>
      </trkpt>
      <trkpt lat="48.22884" lon="6.68838">
        <ele>481.5</ele>
        <time>2023-04-08T07:46:47Z</time>
      </trkpt>
      <trkpt lat="48.22876" lon="6.68846">
        <ele>481.7</ele>
        <time>2023-04-08T07:46:55Z</time>
      </trkpt>
      <trkpt lat="48.22866" lon="6.68849">
        <ele>482</ele>
        <time>2023-04-08T07:47:05Z</time>
      </trkpt>
      <trkpt lat="48.22858" lon="6.68854">
        <ele>482.1</ele>
        <time>2023-04-08T07:47:13Z</time>
      </trkpt>
      <trkpt lat="48.22849" lon="6.68859">
        <ele>482.2</ele>
        <time>2023-04-08T07:47:20Z</time>
      </trkpt>
      <trkpt lat="48.2284" lon="6.68864">
        <ele>482.4</ele>
        <time>2023-04-08T07:47:30Z</time>
      </trkpt>
      <trkpt lat="48.22831" lon="6.68869">
        <ele>482.5</ele>
        <time>2023-04-08T07:47:36Z</time>
      </trkpt>
      <trkpt lat="48.22821" lon="6.68873">
        <ele>482.8</ele>
        <time>2023-04-08T07:47:43Z</time>
      </trkpt>
      <trkpt lat="48.22812" lon="6.68879">
        <ele>483.2</ele>
        <time>2023-04-08T07:47:50Z</time>
      </trkpt>
      <trkpt lat="48.22804" lon="6.68885">
        <ele>483.6</ele>
        <time>2023-04-08T07:47:57Z</time>
      </trkpt>
      <trkpt lat="48.22794" lon="6.68891">
        <ele>484.1</ele>
        <time>2023-04-08T07:48:06Z</time>
      </trkpt>
      <trkpt lat="48.22785" lon="6.68894">
        <ele>484.6</ele>
        <time>2023-04-08T07:48:12Z</time>
      </trkpt>
      <trkpt lat="48.22777" lon="6.68897">
        <ele>485.1</ele>
        <time>2023-04-08T07:48:22Z</time>
      </trkpt>
      <trkpt lat="48.2277" lon="6.68907">
        <ele>485.6</ele>
        <time>2023-04-08T07:48:29Z</time>
      </trkpt>
      <trkpt lat="48.22763" lon="6.68917">
        <ele>486.1</ele>
        <time>2023-04-08T07:48:35Z</time>
      </trkpt>
      <trkpt lat="48.22756" lon="6.68925">
        <ele>486.8</ele>
        <time>2023-04-08T07:48:44Z</time>
      </trkpt>
      <trkpt lat="48.22749" lon="6.68935">
        <ele>487.5</ele>
        <time>2023-04-08T07:48:57Z</time>
      </trkpt>
      <trkpt lat="48.22744" lon="6.68946">
        <ele>488.3</ele>
        <time>2023-04-08T07:49:05Z</time>
      </trkpt>
      <trkpt lat="48.2274" lon="6.68959">
        <ele>489</ele>
        <time>2023-04-08T07:49:13Z</time>
      </trkpt>
      <trkpt lat="48.22737" lon="6.68972">
        <ele>489.9</ele>
        <time>2023-04-08T07:49:21Z</time>
      </trkpt>
      <trkpt lat="48.22737" lon="6.68987">
        <ele>490.9</ele>
        <time>2023-04-08T07:49:28Z</time>
      </trkpt>
      <trkpt lat="48.22736" lon="6.69">
        <ele>491.8</ele>
        <time>2023-04-08T07:49:35Z</time>
      </trkpt>
      <trkpt lat="48.22737" lon="6.69016">
        <ele>492.9</ele>
        <time>2023-04-08T07:49:43Z</time>
      </trkpt>
      <trkpt lat="48.22741" lon="6.69029">
        <ele>494</ele>
        <time>2023-04-08T07:49:53Z</time>
      </trkpt>
      <trkpt lat="48.22743" lon="6.69043">
        <ele>495.1</ele>
        <time>2023-04-08T07:50:01Z</time>
      </trkpt>
      <trkpt lat="48.22741" lon="6.69058">
        <ele>496.4</ele>
        <time>2023-04-08T07:50:08Z</time>
      </trkpt>
      <trkpt lat="48.2274" lon="6.69072">
        <ele>497.7</ele>
        <time>2023-04-08T07:50:15Z</time>
      </trkpt>
      <trkpt lat="48.2274" lon="6.69087">
        <ele>499</ele>
        <time>2023-04-08T07:50:24Z</time>
      </trkpt>
      <trkpt lat="48.2274" lon="6.69101">
        <ele>500.2</ele>
        <time>2023-04-08T07:50:32Z</time>
      </trkpt>
      <trkpt lat="48.2274" lon="6.69116">
        <ele>501.2</ele>
        <time>2023-04-08T07:50:40Z</time>
      </trkpt>
      <trkpt lat="48.22739" lon="6.6913">
        <ele>502</ele>
        <time>2023-04-08T07:50:46Z</time>
      </trkpt>
      <trkpt lat="48.2274" lon="6.69144">
        <ele>502.5</ele>
        <time>2023-04-08T07:50:54Z</time>
      </trkpt>
      <trkpt lat="48.22738" lon="6.69156">
        <ele>502.7</ele>
        <time>2023-04-08T07:51:02Z</time>
      </trkpt>
      <trkpt lat="48.22738" lon="6.69156">
        <ele>502.7</ele>
        <time>2023-04-08T07:51:04Z</time>
      </trkpt>
      <trkpt lat="48.22733" lon="6.69169">
        <ele>502.8</ele>
        <time>2023-04-08T07:51:11Z</time>
      </trkpt>
      <trkpt lat="48.22727" lon="6.69181">
        <ele>502.8</ele>
        <time>2023-04-08T07:51:18Z</time>
      </trkpt>
      <trkpt lat="48.22721" lon="6.69191">
        <ele>503.1</ele>
        <time>2023-04-08T07:51:24Z</time>
      </trkpt>
      <trkpt lat="48.22714" lon="6.692">
        <ele>503.5</ele>
        <time>2023-04-08T07:51:29Z</time>
      </trkpt>
      <trkpt lat="48.22707" lon="6.69211">
        <ele>504</ele>
        <time>2023-04-08T07:51:36Z</time>
      </trkpt>
      <trkpt lat="48.22699" lon="6.6922">
        <ele>504.5</ele>
        <time>2023-04-08T07:51:43Z</time>
      </trkpt>
      <trkpt lat="48.2269" lon="6.69227">
        <ele>504.9</ele>
        <time>2023-04-08T07:51:55Z</time>
      </trkpt>
      <trkpt lat="48.22681" lon="6.69235">
        <ele>505.4</ele>
        <time>2023-04-08T07:52:01Z</time>
      </trkpt>
      <trkpt lat="48.22673" lon="6.69243">
        <ele>505.8</ele>
        <time>2023-04-08T07:52:07Z</time>
      </trkpt>
      <trkpt lat="48.22665" lon="6.69251">
        <ele>506.2</ele>
        <time>2023-04-08T07:52:15Z</time>
      </trkpt>
      <trkpt lat="48.22657" lon="6.6926">
        <ele>506.4</ele>
        <time>2023-04-08T07:52:22Z</time>
      </trkpt>
      <trkpt lat="48.22649" lon="6.69268">
        <ele>506.4</ele>
        <time>2023-04-08T07:52:29Z</time>
      </trkpt>
      <trkpt lat="48.22642" lon="6.69278">
        <ele>506.4</ele>
        <time>2023-04-08T07:52:36Z</time>
      </trkpt>
      <trkpt lat="48.22634" lon="6.69285">
        <ele>506.4</ele>
        <time>2023-04-08T07:52:45Z</time>
      </trkpt>
      <trkpt lat="48.22627" lon="6.69294">
        <ele>506.4</ele>
        <time>2023-04-08T07:52:53Z</time>
      </trkpt>
      <trkpt lat="48.22617" lon="6.693">
        <ele>506.4</ele>
        <time>2023-04-08T07:53:00Z</time>
      </trkpt>
      <trkpt lat="48.22608" lon="6.69304">
        <ele>506.6</ele>
        <time>2023-04-08T07:53:08Z</time>
      </trkpt>
      <trkpt lat="48.22598" lon="6.69304">
        <ele>507</ele>
        <time>2023-04-08T07:53:16Z</time>
      </trkpt>
      <trkpt lat="48.22589" lon="6.69305">
        <ele>507.7</ele>
        <time>2023-04-08T07:53:22Z</time>
      </trkpt>
      <trkpt lat="48.22579" lon="6.69309">
        <ele>508.5</ele>
        <time>2023-04-08T07:53:29Z</time>
      </trkpt>
      <trkpt lat="48.2257" lon="6.69315">
        <ele>509.3</ele>
        <time>2023-04-08T07:53:36Z</time>
      </trkpt>
      <trkpt lat="48.22563" lon="6.69324">
        <ele>510.1</ele>
        <time>2023-04-08T07:53:43Z</time>
      </trkpt>
      <trkpt lat="48.22559" lon="6.69337">
        <ele>510.9</ele>
        <time>2023-04-08T07:53:52Z</time>
      </trkpt>
      <trkpt lat="48.22552" lon="6.69347">
        <ele>511.9</ele>
        <time>2023-04-08T07:53:59Z</time>
      </trkpt>
      <trkpt lat="48.22545" lon="6.69357">
        <ele>512.7</ele>
        <time>2023-04-08T07:54:06Z</time>
      </trkpt>
      <trkpt lat="48.22538" lon="6.69366">
        <ele>513.5</ele>
        <time>2023-04-08T07:54:13Z</time>
      </trkpt>
      <trkpt lat="48.22531" lon="6.69376">
        <ele>514.1</ele>
        <time>2023-04-08T07:54:22Z</time>
      </trkpt>
      <trkpt lat="48.22524" lon="6.69384">
        <ele>514.5</ele>
        <time>2023-04-08T07:54:31Z</time>
      </trkpt>
      <trkpt lat="48.22516" lon="6.69392">
        <ele>515</ele>
        <time>2023-04-08T07:54:38Z</time>
      </trkpt>
      <trkpt lat="48.22509" lon="6.694">
        <ele>515.4</ele>
        <time>2023-04-08T07:54:46Z</time>
      </trkpt>
      <trkpt lat="48.22503" lon="6.69412">
        <ele>515.8</ele>
        <time>2023-04-08T07:54:55Z</time>
      </trkpt>
      <trkpt lat="48.22512" lon="6.69414">
        <ele>516.1</ele>
        <time>2023-04-08T07:55:04Z</time>
      </trkpt>
      <trkpt lat="48.22512" lon="6.69414">
        <ele>516.1</ele>
        <time>2023-04-08T07:55:06Z</time>
      </trkpt>
      <trkpt lat="48.22512" lon="6.69414">
        <ele>516.1</ele>
        <time>2023-04-08T07:55:07Z</time>
      </trkpt>
      <trkpt lat="48.22512" lon="6.69414">
        <ele>516.1</ele>
        <time>2023-04-08T07:55:08Z</time>
      </trkpt>
      <trkpt lat="48.22513" lon="6.69414">
        <ele>516.1</ele>
        <time>2023-04-08T07:55:16Z</time>
      </trkpt>
      <trkpt lat="48.22513" lon="6.69414">
        <ele>516.1</ele>
        <time>2023-04-08T07:55:17Z</time>
      </trkpt>
      <trkpt lat="48.22513" lon="6.69414">
        <ele>516.2</ele>
        <time>2023-04-08T07:55:32Z</time>
      </trkpt>
      <trkpt lat="48.22504" lon="6.69414">
        <ele>516.4</ele>
        <time>2023-04-08T07:55:39Z</time>
      </trkpt>
      <trkpt lat="48.22497" lon="6.69424">
        <ele>516.6</ele>
        <time>2023-04-08T07:55:47Z</time>
      </trkpt>
      <trkpt lat="48.22494" lon="6.69437">
        <ele>516.8</ele>
        <time>2023-04-08T07:55:55Z</time>
      </trkpt>
      <trkpt lat="48.22489" lon="6.69449">
        <ele>516.9</ele>
        <time>2023-04-08T07:56:01Z</time>
      </trkpt>
      <trkpt lat="48.22484" lon="6.69461">
        <ele>516.9</ele>
        <time>2023-04-08T07:56:08Z</time>
      </trkpt>
      <trkpt lat="48.2248" lon="6.69473">
        <ele>516.9</ele>
        <time>2023-04-08T07:56:15Z</time>
      </trkpt>
      <trkpt lat="48.22477" lon="6.69486">
        <ele>516.8</ele>
        <time>2023-04-08T07:56:24Z</time>
      </trkpt>
      <trkpt lat="48.22473" lon="6.695">
        <ele>516.8</ele>
        <time>2023-04-08T07:56:30Z</time>
      </trkpt>
      <trkpt lat="48.22469" lon="6.69513">
        <ele>516.7</ele>
        <time>2023-04-08T07:56:36Z</time>
      </trkpt>
      <trkpt lat="48.22468" lon="6.69517">
        <ele>516.7</ele>
        <time>2023-04-08T07:56:41Z</time>
      </trkpt>
      <trkpt lat="48.22468" lon="6.69518">
        <ele>516.7</ele>
        <time>2023-04-08T07:56:42Z</time>
      </trkpt>
      <trkpt lat="48.22465" lon="6.69532">
        <ele>516.8</ele>
        <time>2023-04-08T07:56:50Z</time>
      </trkpt>
      <trkpt lat="48.22459" lon="6.69543">
        <ele>516.8</ele>
        <time>2023-04-08T07:56:57Z</time>
      </trkpt>
      <trkpt lat="48.22454" lon="6.69556">
        <ele>516.9</ele>
        <time>2023-04-08T07:57:03Z</time>
      </trkpt>
      <trkpt lat="48.22449" lon="6.69568">
        <ele>517</ele>
        <time>2023-04-08T07:57:11Z</time>
      </trkpt>
      <trkpt lat="48.22444" lon="6.6958">
        <ele>517.1</ele>
        <time>2023-04-08T07:57:18Z</time>
      </trkpt>
      <trkpt lat="48.2244" lon="6.69594">
        <ele>517.2</ele>
        <time>2023-04-08T07:57:29Z</time>
      </trkpt>
      <trkpt lat="48.22432" lon="6.69603">
        <ele>517.2</ele>
        <time>2023-04-08T07:57:35Z</time>
      </trkpt>
      <trkpt lat="48.22424" lon="6.69608">
        <ele>517.3</ele>
        <time>2023-04-08T07:57:41Z</time>
      </trkpt>
      <trkpt lat="48.22415" lon="6.69614">
        <ele>517.4</ele>
        <time>2023-04-08T07:57:47Z</time>
      </trkpt>
      <trkpt lat="48.22406" lon="6.69621">
        <ele>517.5</ele>
        <time>2023-04-08T07:57:54Z</time>
      </trkpt>
      <trkpt lat="48.22397" lon="6.69629">
        <ele>517.7</ele>
        <time>2023-04-08T07:58:02Z</time>
      </trkpt>
      <trkpt lat="48.22389" lon="6.69637">
        <ele>517.8</ele>
        <time>2023-04-08T07:58:08Z</time>
      </trkpt>
      <trkpt lat="48.2238" lon="6.69643">
        <ele>518.1</ele>
        <time>2023-04-08T07:58:15Z</time>
      </trkpt>
      <trkpt lat="48.22372" lon="6.69649">
        <ele>518.2</ele>
        <time>2023-04-08T07:58:23Z</time>
      </trkpt>
      <trkpt lat="48.22363" lon="6.69655">
        <ele>518.2</ele>
        <time>2023-04-08T07:58:29Z</time>
      </trkpt>
      <trkpt lat="48.22353" lon="6.69657">
        <ele>518.3</ele>
        <time>2023-04-08T07:58:37Z</time>
      </trkpt>
      <trkpt lat="48.22344" lon="6.69661">
        <ele>518.4</ele>
        <time>2023-04-08T07:58:46Z</time>
      </trkpt>
      <trkpt lat="48.22335" lon="6.69666">
        <ele>518.6</ele>
        <time>2023-04-08T07:58:55Z</time>
      </trkpt>
      <trkpt lat="48.22325" lon="6.69669">
        <ele>518.8</ele>
        <time>2023-04-08T07:59:05Z</time>
      </trkpt>
      <trkpt lat="48.22317" lon="6.69673">
        <ele>519.1</ele>
        <time>2023-04-08T07:59:11Z</time>
      </trkpt>
      <trkpt lat="48.22307" lon="6.69676">
        <ele>519.5</ele>
        <time>2023-04-08T07:59:18Z</time>
      </trkpt>
      <trkpt lat="48.22297" lon="6.69678">
        <ele>519.8</ele>
        <time>2023-04-08T07:59:25Z</time>
      </trkpt>
      <trkpt lat="48.22288" lon="6.6968">
        <ele>520.2</ele>
        <time>2023-04-08T07:59:32Z</time>
      </trkpt>
      <trkpt lat="48.22279" lon="6.69679">
        <ele>520.4</ele>
        <time>2023-04-08T07:59:40Z</time>
      </trkpt>
      <trkpt lat="48.2227" lon="6.69677">
        <ele>520.7</ele>
        <time>2023-04-08T07:59:48Z</time>
      </trkpt>
      <trkpt lat="48.22261" lon="6.69678">
        <ele>520.9</ele>
        <time>2023-04-08T07:59:55Z</time>
      </trkpt>
      <trkpt lat="48.22251" lon="6.69678">
        <ele>521.1</ele>
        <time>2023-04-08T08:00:04Z</time>
      </trkpt>
      <trkpt lat="48.22241" lon="6.69676">
        <ele>521.3</ele>
        <time>2023-04-08T08:00:11Z</time>
      </trkpt>
      <trkpt lat="48.22232" lon="6.69676">
        <ele>521.5</ele>
        <time>2023-04-08T08:00:18Z</time>
      </trkpt>
      <trkpt lat="48.22222" lon="6.69676">
        <ele>521.6</ele>
        <time>2023-04-08T08:00:27Z</time>
      </trkpt>
      <trkpt lat="48.22213" lon="6.69675">
        <ele>521.7</ele>
        <time>2023-04-08T08:00:35Z</time>
      </trkpt>
      <trkpt lat="48.22204" lon="6.69673">
        <ele>521.9</ele>
        <time>2023-04-08T08:00:44Z</time>
      </trkpt>
      <trkpt lat="48.22195" lon="6.69672">
        <ele>522</ele>
        <time>2023-04-08T08:00:53Z</time>
      </trkpt>
      <trkpt lat="48.22186" lon="6.69674">
        <ele>522.3</ele>
        <time>2023-04-08T08:01:01Z</time>
      </trkpt>
      <trkpt lat="48.22176" lon="6.69677">
        <ele>522.6</ele>
        <time>2023-04-08T08:01:07Z</time>
      </trkpt>
      <trkpt lat="48.22167" lon="6.6968">
        <ele>523</ele>
        <time>2023-04-08T08:01:13Z</time>
      </trkpt>
      <trkpt lat="48.22159" lon="6.69685">
        <ele>523.4</ele>
        <time>2023-04-08T08:01:20Z</time>
      </trkpt>
      <trkpt lat="48.22151" lon="6.69692">
        <ele>524</ele>
        <time>2023-04-08T08:01:27Z</time>
      </trkpt>
      <trkpt lat="48.22142" lon="6.69699">
        <ele>524.7</ele>
        <time>2023-04-08T08:01:34Z</time>
      </trkpt>
      <trkpt lat="48.22133" lon="6.69704">
        <ele>525.5</ele>
        <time>2023-04-08T08:01:41Z</time>
      </trkpt>
      <trkpt lat="48.22125" lon="6.6971">
        <ele>526.2</ele>
        <time>2023-04-08T08:01:49Z</time>
      </trkpt>
      <trkpt lat="48.22116" lon="6.69717">
        <ele>527.4</ele>
        <time>2023-04-08T08:01:57Z</time>
      </trkpt>
      <trkpt lat="48.22107" lon="6.69721">
        <ele>528.7</ele>
        <time>2023-04-08T08:02:06Z</time>
      </trkpt>
      <trkpt lat="48.22097" lon="6.69725">
        <ele>530.1</ele>
        <time>2023-04-08T08:02:12Z</time>
      </trkpt>
      <trkpt lat="48.22089" lon="6.69732">
        <ele>531.3</ele>
        <time>2023-04-08T08:02:18Z</time>
      </trkpt>
      <trkpt lat="48.22089" lon="6.69747">
        <ele>532</ele>
        <time>2023-04-08T08:02:31Z</time>
      </trkpt>
      <trkpt lat="48.2209" lon="6.6975">
        <ele>532.1</ele>
        <time>2023-04-08T08:02:38Z</time>
      </trkpt>
      <trkpt lat="48.2209" lon="6.6975">
        <ele>532.1</ele>
        <time>2023-04-08T08:02:39Z</time>
      </trkpt>
      <trkpt lat="48.2209" lon="6.6975">
        <ele>532.1</ele>
        <time>2023-04-08T08:02:40Z</time>
      </trkpt>
      <trkpt lat="48.2209" lon="6.6975">
        <ele>532.2</ele>
        <time>2023-04-08T08:02:42Z</time>
      </trkpt>
      <trkpt lat="48.22098" lon="6.69759">
        <ele>532.8</ele>
        <time>2023-04-08T08:02:54Z</time>
      </trkpt>
      <trkpt lat="48.22101" lon="6.6976">
        <ele>533</ele>
        <time>2023-04-08T08:02:58Z</time>
      </trkpt>
      <trkpt lat="48.22101" lon="6.69759">
        <ele>533</ele>
        <time>2023-04-08T08:02:59Z</time>
      </trkpt>
      <trkpt lat="48.22093" lon="6.69752">
        <ele>533.7</ele>
        <time>2023-04-08T08:03:14Z</time>
      </trkpt>
      <trkpt lat="48.22083" lon="6.69756">
        <ele>534.4</ele>
        <time>2023-04-08T08:03:22Z</time>
      </trkpt>
      <trkpt lat="48.22075" lon="6.69764">
        <ele>535.2</ele>
        <time>2023-04-08T08:03:28Z</time>
      </trkpt>
      <trkpt lat="48.22068" lon="6.69773">
        <ele>536</ele>
        <time>2023-04-08T08:03:37Z</time>
      </trkpt>
      <trkpt lat="48.22061" lon="6.69783">
        <ele>536.9</ele>
        <time>2023-04-08T08:03:46Z</time>
      </trkpt>
      <trkpt lat="48.22054" lon="6.69793">
        <ele>537.6</ele>
        <time>2023-04-08T08:03:53Z</time>
      </trkpt>
      <trkpt lat="48.22046" lon="6.69799">
        <ele>538.4</ele>
        <time>2023-04-08T08:04:01Z</time>
      </trkpt>
      <trkpt lat="48.22038" lon="6.69806">
        <ele>539.1</ele>
        <time>2023-04-08T08:04:08Z</time>
      </trkpt>
      <trkpt lat="48.2203" lon="6.69816">
        <ele>539.9</ele>
        <time>2023-04-08T08:04:15Z</time>
      </trkpt>
      <trkpt lat="48.22023" lon="6.69827">
        <ele>540.6</ele>
        <time>2023-04-08T08:04:23Z</time>
      </trkpt>
      <trkpt lat="48.22019" lon="6.69838">
        <ele>541.2</ele>
        <time>2023-04-08T08:04:30Z</time>
      </trkpt>
      <trkpt lat="48.22016" lon="6.69851">
        <ele>541.9</ele>
        <time>2023-04-08T08:04:37Z</time>
      </trkpt>
      <trkpt lat="48.22013" lon="6.69865">
        <ele>542.7</ele>
        <time>2023-04-08T08:04:44Z</time>
      </trkpt>
      <trkpt lat="48.22011" lon="6.6988">
        <ele>543.5</ele>
        <time>2023-04-08T08:04:52Z</time>
      </trkpt>
      <trkpt lat="48.22007" lon="6.69894">
        <ele>544.4</ele>
        <time>2023-04-08T08:04:59Z</time>
      </trkpt>
      <trkpt lat="48.22006" lon="6.69908">
        <ele>545.3</ele>
        <time>2023-04-08T08:05:06Z</time>
      </trkpt>
      <trkpt lat="48.22003" lon="6.69922">
        <ele>546.3</ele>
        <time>2023-04-08T08:05:11Z</time>
      </trkpt>
      <trkpt lat="48.21997" lon="6.69934">
        <ele>547.2</ele>
        <time>2023-04-08T08:05:21Z</time>
      </trkpt>
      <trkpt lat="48.21991" lon="6.69945">
        <ele>548.1</ele>
        <time>2023-04-08T08:05:28Z</time>
      </trkpt>
      <trkpt lat="48.21985" lon="6.69955">
        <ele>549</ele>
        <time>2023-04-08T08:05:37Z</time>
      </trkpt>
      <trkpt lat="48.21978" lon="6.69964">
        <ele>549.9</ele>
        <time>2023-04-08T08:05:47Z</time>
      </trkpt>
      <trkpt lat="48.2197" lon="6.69972">
        <ele>551</ele>
        <time>2023-04-08T08:05:54Z</time>
      </trkpt>
      <trkpt lat="48.2196" lon="6.69976">
        <ele>551.8</ele>
        <time>2023-04-08T08:06:02Z</time>
      </trkpt>
      <trkpt lat="48.21951" lon="6.69981">
        <ele>552.6</ele>
        <time>2023-04-08T08:06:08Z</time>
      </trkpt>
      <trkpt lat="48.21942" lon="6.69984">
        <ele>553.3</ele>
        <time>2023-04-08T08:06:15Z</time>
      </trkpt>
      <trkpt lat="48.21933" lon="6.6998">
        <ele>554.1</ele>
        <time>2023-04-08T08:06:23Z</time>
      </trkpt>
      <trkpt lat="48.21927" lon="6.69969">
        <ele>554.7</ele>
        <time>2023-04-08T08:06:30Z</time>
      </trkpt>
      <trkpt lat="48.2192" lon="6.69958">
        <ele>555.3</ele>
        <time>2023-04-08T08:06:38Z</time>
      </trkpt>
      <trkpt lat="48.21914" lon="6.69948">
        <ele>555.7</ele>
        <time>2023-04-08T08:06:45Z</time>
      </trkpt>
      <trkpt lat="48.21908" lon="6.69938">
        <ele>556</ele>
        <time>2023-04-08T08:06:53Z</time>
      </trkpt>
      <trkpt lat="48.21901" lon="6.69927">
        <ele>556.2</ele>
        <time>2023-04-08T08:07:01Z</time>
      </trkpt>
      <trkpt lat="48.21895" lon="6.69915">
        <ele>556.3</ele>
        <time>2023-04-08T08:07:09Z</time>
      </trkpt>
      <trkpt lat="48.21889" lon="6.69905">
        <ele>556.2</ele>
        <time>2023-04-08T08:07:16Z</time>
      </trkpt>
      <trkpt lat="48.21881" lon="6.69895">
        <ele>556.1</ele>
        <time>2023-04-08T08:07:25Z</time>
      </trkpt>
      <trkpt lat="48.21875" lon="6.69884">
        <ele>555.8</ele>
        <time>2023-04-08T08:07:33Z</time>
      </trkpt>
      <trkpt lat="48.21868" lon="6.69876">
        <ele>555.6</ele>
        <time>2023-04-08T08:07:42Z</time>
      </trkpt>
      <trkpt lat="48.2186" lon="6.69867">
        <ele>555.3</ele>
        <time>2023-04-08T08:07:49Z</time>
      </trkpt>
      <trkpt lat="48.21852" lon="6.69859">
        <ele>555.1</ele>
        <time>2023-04-08T08:07:57Z</time>
      </trkpt>
      <trkpt lat="48.21845" lon="6.69849">
        <ele>554.9</ele>
        <time>2023-04-08T08:08:07Z</time>
      </trkpt>
      <trkpt lat="48.21837" lon="6.6984">
        <ele>554.7</ele>
        <time>2023-04-08T08:08:14Z</time>
      </trkpt>
      <trkpt lat="48.2183" lon="6.6983">
        <ele>554.5</ele>
        <time>2023-04-08T08:08:21Z</time>
      </trkpt>
      <trkpt lat="48.21824" lon="6.69821">
        <ele>554.3</ele>
        <time>2023-04-08T08:08:28Z</time>
      </trkpt>
      <trkpt lat="48.21815" lon="6.69814">
        <ele>554.2</ele>
        <time>2023-04-08T08:08:34Z</time>
      </trkpt>
      <trkpt lat="48.21807" lon="6.69809">
        <ele>554.1</ele>
        <time>2023-04-08T08:08:42Z</time>
      </trkpt>
      <trkpt lat="48.21798" lon="6.69802">
        <ele>554</ele>
        <time>2023-04-08T08:08:49Z</time>
      </trkpt>
      <trkpt lat="48.21789" lon="6.69795">
        <ele>554</ele>
        <time>2023-04-08T08:08:56Z</time>
      </trkpt>
      <trkpt lat="48.21783" lon="6.69783">
        <ele>553.9</ele>
        <time>2023-04-08T08:09:06Z</time>
      </trkpt>
      <trkpt lat="48.21777" lon="6.69773">
        <ele>554.1</ele>
        <time>2023-04-08T08:09:13Z</time>
      </trkpt>
      <trkpt lat="48.21767" lon="6.69769">
        <ele>554.3</ele>
        <time>2023-04-08T08:09:21Z</time>
      </trkpt>
      <trkpt lat="48.21758" lon="6.69765">
        <ele>554.5</ele>
        <time>2023-04-08T08:09:27Z</time>
      </trkpt>
      <trkpt lat="48.21749" lon="6.6976">
        <ele>554.7</ele>
        <time>2023-04-08T08:09:34Z</time>
      </trkpt>
      <trkpt lat="48.2174" lon="6.69757">
        <ele>554.9</ele>
        <time>2023-04-08T08:09:41Z</time>
      </trkpt>
      <trkpt lat="48.21731" lon="6.69752">
        <ele>555</ele>
        <time>2023-04-08T08:09:47Z</time>
      </trkpt>
      <trkpt lat="48.21723" lon="6.69742">
        <ele>555.1</ele>
        <time>2023-04-08T08:09:56Z</time>
      </trkpt>
      <trkpt lat="48.21716" lon="6.69735">
        <ele>555.3</ele>
        <time>2023-04-08T08:10:04Z</time>
      </trkpt>
      <trkpt lat="48.2171" lon="6.69724">
        <ele>555.5</ele>
        <time>2023-04-08T08:10:12Z</time>
      </trkpt>
      <trkpt lat="48.21704" lon="6.69712">
        <ele>555.8</ele>
        <time>2023-04-08T08:10:20Z</time>
      </trkpt>
      <trkpt lat="48.21696" lon="6.69704">
        <ele>556.1</ele>
        <time>2023-04-08T08:10:32Z</time>
      </trkpt>
      <trkpt lat="48.21687" lon="6.69696">
        <ele>556.3</ele>
        <time>2023-04-08T08:10:40Z</time>
      </trkpt>
      <trkpt lat="48.21678" lon="6.69688">
        <ele>556.4</ele>
        <time>2023-04-08T08:10:47Z</time>
      </trkpt>
      <trkpt lat="48.21669" lon="6.69683">
        <ele>556.3</ele>
        <time>2023-04-08T08:10:54Z</time>
      </trkpt>
      <trkpt lat="48.21659" lon="6.69685">
        <ele>556.2</ele>
        <time>2023-04-08T08:11:01Z</time>
      </trkpt>
      <trkpt lat="48.2165" lon="6.69686">
        <ele>556.1</ele>
        <time>2023-04-08T08:11:06Z</time>
      </trkpt>
      <trkpt lat="48.2164" lon="6.69688">
        <ele>556.1</ele>
        <time>2023-04-08T08:11:17Z</time>
      </trkpt>
      <trkpt lat="48.2163" lon="6.69684">
        <ele>556.1</ele>
        <time>2023-04-08T08:11:23Z</time>
      </trkpt>
      <trkpt lat="48.2162" lon="6.69679">
        <ele>556.3</ele>
        <time>2023-04-08T08:11:30Z</time>
      </trkpt>
      <trkpt lat="48.21611" lon="6.69674">
        <ele>556.5</ele>
        <time>2023-04-08T08:11:37Z</time>
      </trkpt>
      <trkpt lat="48.21602" lon="6.6967">
        <ele>556.6</ele>
        <time>2023-04-08T08:11:45Z</time>
      </trkpt>
      <trkpt lat="48.216" lon="6.69668">
        <ele>556.7</ele>
        <time>2023-04-08T08:11:48Z</time>
      </trkpt>
      <trkpt lat="48.21599" lon="6.69668">
        <ele>556.7</ele>
        <time>2023-04-08T08:11:49Z</time>
      </trkpt>
      <trkpt lat="48.2159" lon="6.69667">
        <ele>556.8</ele>
        <time>2023-04-08T08:11:57Z</time>
      </trkpt>
      <trkpt lat="48.2158" lon="6.69665">
        <ele>556.9</ele>
        <time>2023-04-08T08:12:05Z</time>
      </trkpt>
      <trkpt lat="48.21571" lon="6.69662">
        <ele>557</ele>
        <time>2023-04-08T08:12:12Z</time>
      </trkpt>
      <trkpt lat="48.21561" lon="6.69657">
        <ele>557.2</ele>
        <time>2023-04-08T08:12:21Z</time>
      </trkpt>
      <trkpt lat="48.21552" lon="6.69655">
        <ele>557.5</ele>
        <time>2023-04-08T08:12:28Z</time>
      </trkpt>
      <trkpt lat="48.21543" lon="6.69651">
        <ele>557.7</ele>
        <time>2023-04-08T08:12:36Z</time>
      </trkpt>
      <trkpt lat="48.21534" lon="6.69649">
        <ele>557.9</ele>
        <time>2023-04-08T08:12:46Z</time>
      </trkpt>
      <trkpt lat="48.21524" lon="6.6965">
        <ele>558</ele>
        <time>2023-04-08T08:12:55Z</time>
      </trkpt>
      <trkpt lat="48.21514" lon="6.6965">
        <ele>558.1</ele>
        <time>2023-04-08T08:13:01Z</time>
      </trkpt>
      <trkpt lat="48.21505" lon="6.69648">
        <ele>558.1</ele>
        <time>2023-04-08T08:13:08Z</time>
      </trkpt>
      <trkpt lat="48.21495" lon="6.6965">
        <ele>558.2</ele>
        <time>2023-04-08T08:13:16Z</time>
      </trkpt>
      <trkpt lat="48.21485" lon="6.69658">
        <ele>558.2</ele>
        <time>2023-04-08T08:13:22Z</time>
      </trkpt>
      <trkpt lat="48.21478" lon="6.69666">
        <ele>558.1</ele>
        <time>2023-04-08T08:13:30Z</time>
      </trkpt>
      <trkpt lat="48.21472" lon="6.69677">
        <ele>557.9</ele>
        <time>2023-04-08T08:13:38Z</time>
      </trkpt>
      <trkpt lat="48.21467" lon="6.69688">
        <ele>557.6</ele>
        <time>2023-04-08T08:13:44Z</time>
      </trkpt>
      <trkpt lat="48.21463" lon="6.69702">
        <ele>557</ele>
        <time>2023-04-08T08:13:50Z</time>
      </trkpt>
      <trkpt lat="48.21458" lon="6.69714">
        <ele>556.3</ele>
        <time>2023-04-08T08:13:58Z</time>
      </trkpt>
      <trkpt lat="48.21453" lon="6.69727">
        <ele>555.6</ele>
        <time>2023-04-08T08:14:09Z</time>
      </trkpt>
      <trkpt lat="48.21449" lon="6.69741">
        <ele>554.7</ele>
        <time>2023-04-08T08:14:16Z</time>
      </trkpt>
      <trkpt lat="48.21447" lon="6.69755">
        <ele>553.9</ele>
        <time>2023-04-08T08:14:22Z</time>
      </trkpt>
      <trkpt lat="48.21444" lon="6.69768">
        <ele>553.1</ele>
        <time>2023-04-08T08:14:28Z</time>
      </trkpt>
      <trkpt lat="48.21446" lon="6.69781">
        <ele>552.3</ele>
        <time>2023-04-08T08:14:35Z</time>
      </trkpt>
      <trkpt lat="48.21447" lon="6.69797">
        <ele>551.4</ele>
        <time>2023-04-08T08:14:44Z</time>
      </trkpt>
      <trkpt lat="48.21446" lon="6.69812">
        <ele>550.5</ele>
        <time>2023-04-08T08:14:52Z</time>
      </trkpt>
      <trkpt lat="48.21447" lon="6.69825">
        <ele>549.6</ele>
        <time>2023-04-08T08:14:58Z</time>
      </trkpt>
      <trkpt lat="48.21446" lon="6.6984">
        <ele>548.6</ele>
        <time>2023-04-08T08:15:06Z</time>
      </trkpt>
      <trkpt lat="48.21447" lon="6.69855">
        <ele>547.5</ele>
        <time>2023-04-08T08:15:14Z</time>
      </trkpt>
      <trkpt lat="48.21446" lon="6.69869">
        <ele>546.4</ele>
        <time>2023-04-08T08:15:21Z</time>
      </trkpt>
      <trkpt lat="48.21444" lon="6.69884">
        <ele>545.3</ele>
        <time>2023-04-08T08:15:28Z</time>
      </trkpt>
      <trkpt lat="48.21444" lon="6.69897">
        <ele>544.2</ele>
        <time>2023-04-08T08:15:36Z</time>
      </trkpt>
      <trkpt lat="48.21441" lon="6.69912">
        <ele>543.1</ele>
        <time>2023-04-08T08:15:44Z</time>
      </trkpt>
      <trkpt lat="48.21438" lon="6.69926">
        <ele>541.9</ele>
        <time>2023-04-08T08:15:52Z</time>
      </trkpt>
      <trkpt lat="48.21433" lon="6.69938">
        <ele>540.8</ele>
        <time>2023-04-08T08:15:59Z</time>
      </trkpt>
      <trkpt lat="48.21426" lon="6.69946">
        <ele>539.8</ele>
        <time>2023-04-08T08:16:05Z</time>
      </trkpt>
      <trkpt lat="48.21418" lon="6.69953">
        <ele>538.8</ele>
        <time>2023-04-08T08:16:13Z</time>
      </trkpt>
      <trkpt lat="48.21408" lon="6.69958">
        <ele>537.7</ele>
        <time>2023-04-08T08:16:20Z</time>
      </trkpt>
      <trkpt lat="48.21399" lon="6.6996">
        <ele>536.6</ele>
        <time>2023-04-08T08:16:26Z</time>
      </trkpt>
      <trkpt lat="48.2139" lon="6.69965">
        <ele>535.5</ele>
        <time>2023-04-08T08:16:33Z</time>
      </trkpt>
      <trkpt lat="48.21381" lon="6.6997">
        <ele>534.6</ele>
        <time>2023-04-08T08:16:40Z</time>
      </trkpt>
      <trkpt lat="48.21373" lon="6.69977">
        <ele>533.8</ele>
        <time>2023-04-08T08:16:48Z</time>
      </trkpt>
      <trkpt lat="48.21372" lon="6.69977">
        <ele>533.7</ele>
        <time>2023-04-08T08:16:52Z</time>
      </trkpt>
      <trkpt lat="48.21372" lon="6.69976">
        <ele>533.7</ele>
        <time>2023-04-08T08:16:55Z</time>
      </trkpt>
      <trkpt lat="48.21372" lon="6.69976">
        <ele>533.6</ele>
        <time>2023-04-08T08:16:57Z</time>
      </trkpt>
      <trkpt lat="48.21372" lon="6.69976">
        <ele>533.6</ele>
        <time>2023-04-08T08:16:59Z</time>
      </trkpt>
      <trkpt lat="48.21372" lon="6.69976">
        <ele>533.6</ele>
        <time>2023-04-08T08:17:00Z</time>
      </trkpt>
      <trkpt lat="48.21372" lon="6.69976">
        <ele>533.6</ele>
        <time>2023-04-08T08:17:03Z</time>
      </trkpt>
      <trkpt lat="48.21372" lon="6.69976">
        <ele>533.6</ele>
        <time>2023-04-08T08:17:04Z</time>
      </trkpt>
      <trkpt lat="48.21371" lon="6.69977">
        <ele>533.6</ele>
        <time>2023-04-08T08:17:06Z</time>
      </trkpt>
      <trkpt lat="48.21362" lon="6.69981">
        <ele>532.6</ele>
        <time>2023-04-08T08:17:16Z</time>
      </trkpt>
      <trkpt lat="48.21353" lon="6.69983">
        <ele>531.6</ele>
        <time>2023-04-08T08:17:25Z</time>
      </trkpt>
      <trkpt lat="48.21344" lon="6.69986">
        <ele>530.8</ele>
        <time>2023-04-08T08:17:32Z</time>
      </trkpt>
      <trkpt lat="48.21335" lon="6.69988">
        <ele>530.1</ele>
        <time>2023-04-08T08:17:43Z</time>
      </trkpt>
      <trkpt lat="48.21326" lon="6.69994">
        <ele>529.7</ele>
        <time>2023-04-08T08:17:49Z</time>
      </trkpt>
      <trkpt lat="48.21318" lon="6.70001">
        <ele>529.4</ele>
        <time>2023-04-08T08:17:56Z</time>
      </trkpt>
      <trkpt lat="48.21309" lon="6.69996">
        <ele>529.4</ele>
        <time>2023-04-08T08:18:04Z</time>
      </trkpt>
      <trkpt lat="48.21305" lon="6.69994">
        <ele>529.4</ele>
        <time>2023-04-08T08:18:13Z</time>
      </trkpt>
      <trkpt lat="48.21305" lon="6.69994">
        <ele>529.4</ele>
        <time>2023-04-08T08:18:32Z</time>
      </trkpt>
      <trkpt lat="48.21307" lon="6.69996">
        <ele>529.4</ele>
        <time>2023-04-08T08:18:36Z</time>
      </trkpt>
      <trkpt lat="48.21307" lon="6.69996">
        <ele>529.4</ele>
        <time>2023-04-08T08:18:43Z</time>
      </trkpt>
      <trkpt lat="48.21307" lon="6.69996">
        <ele>529.4</ele>
        <time>2023-04-08T08:18:44Z</time>
      </trkpt>
      <trkpt lat="48.21307" lon="6.69997">
        <ele>529.4</ele>
        <time>2023-04-08T08:18:45Z</time>
      </trkpt>
      <trkpt lat="48.21308" lon="6.69998">
        <ele>529.5</ele>
        <time>2023-04-08T08:18:52Z</time>
      </trkpt>
      <trkpt lat="48.21307" lon="6.69998">
        <ele>529.5</ele>
        <time>2023-04-08T08:18:58Z</time>
      </trkpt>
      <trkpt lat="48.21307" lon="6.69998">
        <ele>529.5</ele>
        <time>2023-04-08T08:18:59Z</time>
      </trkpt>
      <trkpt lat="48.21307" lon="6.69996">
        <ele>529.5</ele>
        <time>2023-04-08T08:19:15Z</time>
      </trkpt>
      <trkpt lat="48.21306" lon="6.69994">
        <ele>529.5</ele>
        <time>2023-04-08T08:19:18Z</time>
      </trkpt>
      <trkpt lat="48.21305" lon="6.69994">
        <ele>529.5</ele>
        <time>2023-04-08T08:19:21Z</time>
      </trkpt>
      <trkpt lat="48.21305" lon="6.69994">
        <ele>529.5</ele>
        <time>2023-04-08T08:19:22Z</time>
      </trkpt>
      <trkpt lat="48.21305" lon="6.69994">
        <ele>529.5</ele>
        <time>2023-04-08T08:19:35Z</time>
      </trkpt>
      <trkpt lat="48.21304" lon="6.69994">
        <ele>529.5</ele>
        <time>2023-04-08T08:19:42Z</time>
      </trkpt>
      <trkpt lat="48.21304" lon="6.69994">
        <ele>529.5</ele>
        <time>2023-04-08T08:19:44Z</time>
      </trkpt>
      <trkpt lat="48.21301" lon="6.69999">
        <ele>529.6</ele>
        <time>2023-04-08T08:19:57Z</time>
      </trkpt>
      <trkpt lat="48.213" lon="6.69999">
        <ele>529.6</ele>
        <time>2023-04-08T08:20:00Z</time>
      </trkpt>
      <trkpt lat="48.213" lon="6.69999">
        <ele>529.6</ele>
        <time>2023-04-08T08:20:02Z</time>
      </trkpt>
      <trkpt lat="48.213" lon="6.69999">
        <ele>529.6</ele>
        <time>2023-04-08T08:20:12Z</time>
      </trkpt>
      <trkpt lat="48.21299" lon="6.69998">
        <ele>529.7</ele>
        <time>2023-04-08T08:20:15Z</time>
      </trkpt>
      <trkpt lat="48.21299" lon="6.69999">
        <ele>529.7</ele>
        <time>2023-04-08T08:20:23Z</time>
      </trkpt>
      <trkpt lat="48.21292" lon="6.7001">
        <ele>530</ele>
        <time>2023-04-08T08:20:32Z</time>
      </trkpt>
      <trkpt lat="48.21283" lon="6.70016">
        <ele>530.3</ele>
        <time>2023-04-08T08:20:39Z</time>
      </trkpt>
      <trkpt lat="48.21274" lon="6.7002">
        <ele>530.8</ele>
        <time>2023-04-08T08:20:49Z</time>
      </trkpt>
      <trkpt lat="48.21265" lon="6.70025">
        <ele>531.2</ele>
        <time>2023-04-08T08:20:57Z</time>
      </trkpt>
      <trkpt lat="48.21256" lon="6.70026">
        <ele>531.6</ele>
        <time>2023-04-08T08:21:05Z</time>
      </trkpt>
      <trkpt lat="48.21246" lon="6.70027">
        <ele>532.1</ele>
        <time>2023-04-08T08:21:12Z</time>
      </trkpt>
      <trkpt lat="48.21236" lon="6.70029">
        <ele>532.5</ele>
        <time>2023-04-08T08:21:19Z</time>
      </trkpt>
      <trkpt lat="48.21227" lon="6.70028">
        <ele>533</ele>
        <time>2023-04-08T08:21:26Z</time>
      </trkpt>
      <trkpt lat="48.21227" lon="6.70029">
        <ele>533</ele>
        <time>2023-04-08T08:21:28Z</time>
      </trkpt>
      <trkpt lat="48.21226" lon="6.7003">
        <ele>533</ele>
        <time>2023-04-08T08:21:29Z</time>
      </trkpt>
      <trkpt lat="48.21217" lon="6.70035">
        <ele>533.5</ele>
        <time>2023-04-08T08:21:36Z</time>
      </trkpt>
      <trkpt lat="48.21209" lon="6.70041">
        <ele>534</ele>
        <time>2023-04-08T08:21:42Z</time>
      </trkpt>
      <trkpt lat="48.212" lon="6.70046">
        <ele>534.4</ele>
        <time>2023-04-08T08:21:50Z</time>
      </trkpt>
      <trkpt lat="48.21191" lon="6.70051">
        <ele>534.9</ele>
        <time>2023-04-08T08:21:58Z</time>
      </trkpt>
      <trkpt lat="48.21183" lon="6.70059">
        <ele>535.3</ele>
        <time>2023-04-08T08:22:05Z</time>
      </trkpt>
      <trkpt lat="48.21181" lon="6.70056">
        <ele>535.4</ele>
        <time>2023-04-08T08:22:15Z</time>
      </trkpt>
      <trkpt lat="48.21181" lon="6.70056">
        <ele>535.4</ele>
        <time>2023-04-08T08:22:27Z</time>
      </trkpt>
      <trkpt lat="48.21181" lon="6.70056">
        <ele>535.4</ele>
        <time>2023-04-08T08:22:28Z</time>
      </trkpt>
      <trkpt lat="48.21181" lon="6.70055">
        <ele>535.4</ele>
        <time>2023-04-08T08:22:35Z</time>
      </trkpt>
      <trkpt lat="48.21182" lon="6.70054">
        <ele>535.5</ele>
        <time>2023-04-08T08:22:40Z</time>
      </trkpt>
      <trkpt lat="48.21181" lon="6.70055">
        <ele>535.5</ele>
        <time>2023-04-08T08:22:52Z</time>
      </trkpt>
      <trkpt lat="48.21174" lon="6.70062">
        <ele>535.9</ele>
        <time>2023-04-08T08:22:59Z</time>
      </trkpt>
      <trkpt lat="48.21166" lon="6.70069">
        <ele>536.3</ele>
        <time>2023-04-08T08:23:06Z</time>
      </trkpt>
      <trkpt lat="48.21159" lon="6.70077">
        <ele>536.7</ele>
        <time>2023-04-08T08:23:12Z</time>
      </trkpt>
      <trkpt lat="48.21151" lon="6.70085">
        <ele>537.1</ele>
        <time>2023-04-08T08:23:17Z</time>
      </trkpt>
      <trkpt lat="48.21144" lon="6.70094">
        <ele>537.5</ele>
        <time>2023-04-08T08:23:23Z</time>
      </trkpt>
      <trkpt lat="48.21139" lon="6.70107">
        <ele>537.9</ele>
        <time>2023-04-08T08:23:30Z</time>
      </trkpt>
      <trkpt lat="48.21134" lon="6.70121">
        <ele>538.2</ele>
        <time>2023-04-08T08:23:38Z</time>
      </trkpt>
      <trkpt lat="48.21135" lon="6.70136">
        <ele>538.6</ele>
        <time>2023-04-08T08:23:44Z</time>
      </trkpt>
      <trkpt lat="48.21135" lon="6.7015">
        <ele>538.9</ele>
        <time>2023-04-08T08:23:53Z</time>
      </trkpt>
      <trkpt lat="48.21137" lon="6.70165">
        <ele>539.2</ele>
        <time>2023-04-08T08:24:01Z</time>
      </trkpt>
      <trkpt lat="48.2114" lon="6.70178">
        <ele>539.5</ele>
        <time>2023-04-08T08:24:08Z</time>
      </trkpt>
      <trkpt lat="48.21143" lon="6.70191">
        <ele>539.9</ele>
        <time>2023-04-08T08:24:16Z</time>
      </trkpt>
      <trkpt lat="48.21147" lon="6.70205">
        <ele>540.1</ele>
        <time>2023-04-08T08:24:24Z</time>
      </trkpt>
      <trkpt lat="48.21152" lon="6.70218">
        <ele>540.4</ele>
        <time>2023-04-08T08:24:32Z</time>
      </trkpt>
      <trkpt lat="48.21158" lon="6.70229">
        <ele>540.6</ele>
        <time>2023-04-08T08:24:38Z</time>
      </trkpt>
      <trkpt lat="48.21165" lon="6.70241">
        <ele>540.8</ele>
        <time>2023-04-08T08:24:44Z</time>
      </trkpt>
      <trkpt lat="48.21171" lon="6.70252">
        <ele>541</ele>
        <time>2023-04-08T08:24:51Z</time>
      </trkpt>
      <trkpt lat="48.21179" lon="6.70261">
        <ele>541.1</ele>
        <time>2023-04-08T08:24:59Z</time>
      </trkpt>
      <trkpt lat="48.21185" lon="6.70273">
        <ele>541.2</ele>
        <time>2023-04-08T08:25:07Z</time>
      </trkpt>
      <trkpt lat="48.21191" lon="6.70284">
        <ele>541.2</ele>
        <time>2023-04-08T08:25:14Z</time>
      </trkpt>
      <trkpt lat="48.21199" lon="6.7029">
        <ele>541.2</ele>
        <time>2023-04-08T08:25:21Z</time>
      </trkpt>
      <trkpt lat="48.21207" lon="6.70299">
        <ele>541.2</ele>
        <time>2023-04-08T08:25:30Z</time>
      </trkpt>
      <trkpt lat="48.21214" lon="6.70308">
        <ele>541.1</ele>
        <time>2023-04-08T08:25:39Z</time>
      </trkpt>
      <trkpt lat="48.2122" lon="6.70317">
        <ele>541.1</ele>
        <time>2023-04-08T08:25:48Z</time>
      </trkpt>
      <trkpt lat="48.21226" lon="6.7033">
        <ele>541.1</ele>
        <time>2023-04-08T08:25:54Z</time>
      </trkpt>
      <trkpt lat="48.21232" lon="6.7034">
        <ele>541</ele>
        <time>2023-04-08T08:26:04Z</time>
      </trkpt>
      <trkpt lat="48.21233" lon="6.70336">
        <ele>541</ele>
        <time>2023-04-08T08:26:11Z</time>
      </trkpt>
      <trkpt lat="48.21232" lon="6.70336">
        <ele>541</ele>
        <time>2023-04-08T08:26:17Z</time>
      </trkpt>
      <trkpt lat="48.21232" lon="6.7034">
        <ele>541</ele>
        <time>2023-04-08T08:26:23Z</time>
      </trkpt>
      <trkpt lat="48.21232" lon="6.7034">
        <ele>541</ele>
        <time>2023-04-08T08:26:24Z</time>
      </trkpt>
      <trkpt lat="48.21232" lon="6.7034">
        <ele>541</ele>
        <time>2023-04-08T08:26:26Z</time>
      </trkpt>
      <trkpt lat="48.21233" lon="6.70341">
        <ele>541</ele>
        <time>2023-04-08T08:26:29Z</time>
      </trkpt>
      <trkpt lat="48.2124" lon="6.7035">
        <ele>541</ele>
        <time>2023-04-08T08:26:39Z</time>
      </trkpt>
      <trkpt lat="48.21247" lon="6.70358">
        <ele>541</ele>
        <time>2023-04-08T08:26:47Z</time>
      </trkpt>
      <trkpt lat="48.21254" lon="6.70371">
        <ele>541</ele>
        <time>2023-04-08T08:26:54Z</time>
      </trkpt>
      <trkpt lat="48.2126" lon="6.70382">
        <ele>540.9</ele>
        <time>2023-04-08T08:27:01Z</time>
      </trkpt>
      <trkpt lat="48.21267" lon="6.70394">
        <ele>540.9</ele>
        <time>2023-04-08T08:27:08Z</time>
      </trkpt>
      <trkpt lat="48.21275" lon="6.70402">
        <ele>540.9</ele>
        <time>2023-04-08T08:27:16Z</time>
      </trkpt>
      <trkpt lat="48.21279" lon="6.70414">
        <ele>540.9</ele>
        <time>2023-04-08T08:27:23Z</time>
      </trkpt>
      <trkpt lat="48.21283" lon="6.70428">
        <ele>541</ele>
        <time>2023-04-08T08:27:31Z</time>
      </trkpt>
      <trkpt lat="48.21288" lon="6.70441">
        <ele>541</ele>
        <time>2023-04-08T08:27:40Z</time>
      </trkpt>
      <trkpt lat="48.21294" lon="6.70452">
        <ele>541.1</ele>
        <time>2023-04-08T08:27:49Z</time>
      </trkpt>
      <trkpt lat="48.21301" lon="6.70463">
        <ele>541.2</ele>
        <time>2023-04-08T08:27:58Z</time>
      </trkpt>
      <trkpt lat="48.21306" lon="6.70476">
        <ele>541.2</ele>
        <time>2023-04-08T08:28:05Z</time>
      </trkpt>
      <trkpt lat="48.2131" lon="6.70489">
        <ele>541.3</ele>
        <time>2023-04-08T08:28:13Z</time>
      </trkpt>
      <trkpt lat="48.2131" lon="6.70493">
        <ele>541.3</ele>
        <time>2023-04-08T08:28:17Z</time>
      </trkpt>
      <trkpt lat="48.21311" lon="6.70494">
        <ele>541.3</ele>
        <time>2023-04-08T08:28:18Z</time>
      </trkpt>
      <trkpt lat="48.2132" lon="6.70493">
        <ele>541.4</ele>
        <time>2023-04-08T08:28:30Z</time>
      </trkpt>
      <trkpt lat="48.21321" lon="6.70496">
        <ele>541.5</ele>
        <time>2023-04-08T08:28:34Z</time>
      </trkpt>
      <trkpt lat="48.21321" lon="6.70496">
        <ele>541.5</ele>
        <time>2023-04-08T08:28:37Z</time>
      </trkpt>
      <trkpt lat="48.21326" lon="6.70509">
        <ele>541.8</ele>
        <time>2023-04-08T08:28:51Z</time>
      </trkpt>
      <trkpt lat="48.21325" lon="6.70523">
        <ele>542.3</ele>
        <time>2023-04-08T08:28:58Z</time>
      </trkpt>
      <trkpt lat="48.21317" lon="6.70532">
        <ele>542.9</ele>
        <time>2023-04-08T08:29:07Z</time>
      </trkpt>
      <trkpt lat="48.21312" lon="6.70543">
        <ele>543.6</ele>
        <time>2023-04-08T08:29:15Z</time>
      </trkpt>
      <trkpt lat="48.21306" lon="6.70556">
        <ele>544.4</ele>
        <time>2023-04-08T08:29:24Z</time>
      </trkpt>
      <trkpt lat="48.213" lon="6.70567">
        <ele>545.1</ele>
        <time>2023-04-08T08:29:32Z</time>
      </trkpt>
      <trkpt lat="48.21295" lon="6.70579">
        <ele>545.7</ele>
        <time>2023-04-08T08:29:39Z</time>
      </trkpt>
      <trkpt lat="48.21288" lon="6.70589">
        <ele>546.4</ele>
        <time>2023-04-08T08:29:46Z</time>
      </trkpt>
      <trkpt lat="48.21282" lon="6.70601">
        <ele>547</ele>
        <time>2023-04-08T08:29:54Z</time>
      </trkpt>
      <trkpt lat="48.21278" lon="6.70615">
        <ele>547.6</ele>
        <time>2023-04-08T08:30:02Z</time>
      </trkpt>
      <trkpt lat="48.21272" lon="6.70627">
        <ele>548.1</ele>
        <time>2023-04-08T08:30:11Z</time>
      </trkpt>
      <trkpt lat="48.2127" lon="6.70641">
        <ele>548.5</ele>
        <time>2023-04-08T08:30:18Z</time>
      </trkpt>
      <trkpt lat="48.21266" lon="6.70653">
        <ele>548.8</ele>
        <time>2023-04-08T08:30:26Z</time>
      </trkpt>
      <trkpt lat="48.21264" lon="6.70667">
        <ele>549.1</ele>
        <time>2023-04-08T08:30:34Z</time>
      </trkpt>
      <trkpt lat="48.21263" lon="6.70682">
        <ele>549.4</ele>
        <time>2023-04-08T08:30:41Z</time>
      </trkpt>
      <trkpt lat="48.21265" lon="6.70695">
        <ele>549.7</ele>
        <time>2023-04-08T08:30:46Z</time>
      </trkpt>
      <trkpt lat="48.21266" lon="6.70709">
        <ele>549.9</ele>
        <time>2023-04-08T08:30:54Z</time>
      </trkpt>
      <trkpt lat="48.21265" lon="6.70718">
        <ele>550.1</ele>
        <time>2023-04-08T08:31:03Z</time>
      </trkpt>
      <trkpt lat="48.21265" lon="6.70718">
        <ele>550.1</ele>
        <time>2023-04-08T08:31:09Z</time>
      </trkpt>
      <trkpt lat="48.21269" lon="6.70733">
        <ele>550.3</ele>
        <time>2023-04-08T08:31:18Z</time>
      </trkpt>
      <trkpt lat="48.21275" lon="6.70745">
        <ele>550.4</ele>
        <time>2023-04-08T08:31:27Z</time>
      </trkpt>
      <trkpt lat="48.2128" lon="6.70759">
        <ele>550.6</ele>
        <time>2023-04-08T08:31:36Z</time>
      </trkpt>
      <trkpt lat="48.21286" lon="6.70771">
        <ele>550.6</ele>
        <time>2023-04-08T08:31:42Z</time>
      </trkpt>
      <trkpt lat="48.2129" lon="6.70785">
        <ele>550.6</ele>
        <time>2023-04-08T08:31:48Z</time>
      </trkpt>
      <trkpt lat="48.21291" lon="6.708">
        <ele>550.3</ele>
        <time>2023-04-08T08:31:58Z</time>
      </trkpt>
      <trkpt lat="48.21292" lon="6.70815">
        <ele>549.9</ele>
        <time>2023-04-08T08:32:05Z</time>
      </trkpt>
      <trkpt lat="48.21293" lon="6.7083">
        <ele>549.4</ele>
        <time>2023-04-08T08:32:13Z</time>
      </trkpt>
      <trkpt lat="48.21296" lon="6.70843">
        <ele>548.9</ele>
        <time>2023-04-08T08:32:20Z</time>
      </trkpt>
      <trkpt lat="48.21296" lon="6.70858">
        <ele>548.4</ele>
        <time>2023-04-08T08:32:27Z</time>
      </trkpt>
      <trkpt lat="48.21294" lon="6.70872">
        <ele>548.1</ele>
        <time>2023-04-08T08:32:34Z</time>
      </trkpt>
      <trkpt lat="48.21294" lon="6.70886">
        <ele>547.8</ele>
        <time>2023-04-08T08:32:41Z</time>
      </trkpt>
      <trkpt lat="48.21292" lon="6.709">
        <ele>547.5</ele>
        <time>2023-04-08T08:32:49Z</time>
      </trkpt>
      <trkpt lat="48.21285" lon="6.70909">
        <ele>547.2</ele>
        <time>2023-04-08T08:32:58Z</time>
      </trkpt>
      <trkpt lat="48.21283" lon="6.70914">
        <ele>547.1</ele>
        <time>2023-04-08T08:33:09Z</time>
      </trkpt>
      <trkpt lat="48.21283" lon="6.70914">
        <ele>547.1</ele>
        <time>2023-04-08T08:33:37Z</time>
      </trkpt>
      <trkpt lat="48.21282" lon="6.70915">
        <ele>547.1</ele>
        <time>2023-04-08T08:33:42Z</time>
      </trkpt>
      <trkpt lat="48.21282" lon="6.70915">
        <ele>547.1</ele>
        <time>2023-04-08T08:33:56Z</time>
      </trkpt>
      <trkpt lat="48.21282" lon="6.70915">
        <ele>547.1</ele>
        <time>2023-04-08T08:33:57Z</time>
      </trkpt>
      <trkpt lat="48.21282" lon="6.70914">
        <ele>547.1</ele>
        <time>2023-04-08T08:34:41Z</time>
      </trkpt>
      <trkpt lat="48.2128" lon="6.70913">
        <ele>547.1</ele>
        <time>2023-04-08T08:34:47Z</time>
      </trkpt>
      <trkpt lat="48.2128" lon="6.70913">
        <ele>547.1</ele>
        <time>2023-04-08T08:34:51Z</time>
      </trkpt>
      <trkpt lat="48.21279" lon="6.70899">
        <ele>546.8</ele>
        <time>2023-04-08T08:35:00Z</time>
      </trkpt>
      <trkpt lat="48.21275" lon="6.70886">
        <ele>546.5</ele>
        <time>2023-04-08T08:35:08Z</time>
      </trkpt>
      <trkpt lat="48.21276" lon="6.70872">
        <ele>546.2</ele>
        <time>2023-04-08T08:35:16Z</time>
      </trkpt>
      <trkpt lat="48.21273" lon="6.70858">
        <ele>545.8</ele>
        <time>2023-04-08T08:35:25Z</time>
      </trkpt>
      <trkpt lat="48.21271" lon="6.70843">
        <ele>545.4</ele>
        <time>2023-04-08T08:35:32Z</time>
      </trkpt>
      <trkpt lat="48.21269" lon="6.7083">
        <ele>545</ele>
        <time>2023-04-08T08:35:39Z</time>
      </trkpt>
      <trkpt lat="48.21266" lon="6.70816">
        <ele>544.3</ele>
        <time>2023-04-08T08:35:48Z</time>
      </trkpt>
      <trkpt lat="48.21265" lon="6.70802">
        <ele>543.4</ele>
        <time>2023-04-08T08:35:56Z</time>
      </trkpt>
      <trkpt lat="48.2126" lon="6.70788">
        <ele>542.4</ele>
        <time>2023-04-08T08:36:02Z</time>
      </trkpt>
      <trkpt lat="48.21256" lon="6.70776">
        <ele>541.5</ele>
        <time>2023-04-08T08:36:07Z</time>
      </trkpt>
      <trkpt lat="48.21251" lon="6.70763">
        <ele>540.6</ele>
        <time>2023-04-08T08:36:14Z</time>
      </trkpt>
      <trkpt lat="48.21249" lon="6.70748">
        <ele>539.6</ele>
        <time>2023-04-08T08:36:22Z</time>
      </trkpt>
      <trkpt lat="48.21243" lon="6.70737">
        <ele>538.7</ele>
        <time>2023-04-08T08:36:28Z</time>
      </trkpt>
      <trkpt lat="48.21239" lon="6.70723">
        <ele>537.8</ele>
        <time>2023-04-08T08:36:35Z</time>
      </trkpt>
      <trkpt lat="48.21236" lon="6.70709">
        <ele>537</ele>
        <time>2023-04-08T08:36:43Z</time>
      </trkpt>
      <trkpt lat="48.21238" lon="6.70695">
        <ele>536.3</ele>
        <time>2023-04-08T08:36:50Z</time>
      </trkpt>
      <trkpt lat="48.21237" lon="6.70681">
        <ele>535.7</ele>
        <time>2023-04-08T08:36:58Z</time>
      </trkpt>
      <trkpt lat="48.21233" lon="6.70668">
        <ele>534.9</ele>
        <time>2023-04-08T08:37:06Z</time>
      </trkpt>
      <trkpt lat="48.21229" lon="6.70654">
        <ele>534</ele>
        <time>2023-04-08T08:37:14Z</time>
      </trkpt>
      <trkpt lat="48.21227" lon="6.70639">
        <ele>533.3</ele>
        <time>2023-04-08T08:37:22Z</time>
      </trkpt>
      <trkpt lat="48.21227" lon="6.70625">
        <ele>532.6</ele>
        <time>2023-04-08T08:37:27Z</time>
      </trkpt>
      <trkpt lat="48.21229" lon="6.70611">
        <ele>531.7</ele>
        <time>2023-04-08T08:37:37Z</time>
      </trkpt>
      <trkpt lat="48.21227" lon="6.70626">
        <ele>530.5</ele>
        <time>2023-04-08T08:37:52Z</time>
      </trkpt>
      <trkpt lat="48.21221" lon="6.70639">
        <ele>529.1</ele>
        <time>2023-04-08T08:38:00Z</time>
      </trkpt>
      <trkpt lat="48.21218" lon="6.70652">
        <ele>527.9</ele>
        <time>2023-04-08T08:38:06Z</time>
      </trkpt>
      <trkpt lat="48.21214" lon="6.70665">
        <ele>526.6</ele>
        <time>2023-04-08T08:38:13Z</time>
      </trkpt>
      <trkpt lat="48.21212" lon="6.70679">
        <ele>525.2</ele>
        <time>2023-04-08T08:38:20Z</time>
      </trkpt>
      <trkpt lat="48.21209" lon="6.70693">
        <ele>523.8</ele>
        <time>2023-04-08T08:38:28Z</time>
      </trkpt>
      <trkpt lat="48.21205" lon="6.70706">
        <ele>522.2</ele>
        <time>2023-04-08T08:38:35Z</time>
      </trkpt>
      <trkpt lat="48.21203" lon="6.7072">
        <ele>520.7</ele>
        <time>2023-04-08T08:38:43Z</time>
      </trkpt>
      <trkpt lat="48.21201" lon="6.70733">
        <ele>519.4</ele>
        <time>2023-04-08T08:38:48Z</time>
      </trkpt>
      <trkpt lat="48.21198" lon="6.70747">
        <ele>517.9</ele>
        <time>2023-04-08T08:38:55Z</time>
      </trkpt>
      <trkpt lat="48.21195" lon="6.70761">
        <ele>516.5</ele>
        <time>2023-04-08T08:39:02Z</time>
      </trkpt>
      <trkpt lat="48.21193" lon="6.70774">
        <ele>515.1</ele>
        <time>2023-04-08T08:39:11Z</time>
      </trkpt>
      <trkpt lat="48.21192" lon="6.70789">
        <ele>513.7</ele>
        <time>2023-04-08T08:39:19Z</time>
      </trkpt>
      <trkpt lat="48.21191" lon="6.70803">
        <ele>512.6</ele>
        <time>2023-04-08T08:39:26Z</time>
      </trkpt>
      <trkpt lat="48.2119" lon="6.70817">
        <ele>511.4</ele>
        <time>2023-04-08T08:39:36Z</time>
      </trkpt>
      <trkpt lat="48.21189" lon="6.7083">
        <ele>510.2</ele>
        <time>2023-04-08T08:39:44Z</time>
      </trkpt>
      <trkpt lat="48.21188" lon="6.70845">
        <ele>508.9</ele>
        <time>2023-04-08T08:39:53Z</time>
      </trkpt>
      <trkpt lat="48.21187" lon="6.70859">
        <ele>507.7</ele>
        <time>2023-04-08T08:40:01Z</time>
      </trkpt>
      <trkpt lat="48.21185" lon="6.70873">
        <ele>506.5</ele>
        <time>2023-04-08T08:40:08Z</time>
      </trkpt>
      <trkpt lat="48.21187" lon="6.70887">
        <ele>505.5</ele>
        <time>2023-04-08T08:40:15Z</time>
      </trkpt>
      <trkpt lat="48.21187" lon="6.70901">
        <ele>504.6</ele>
        <time>2023-04-08T08:40:23Z</time>
      </trkpt>
      <trkpt lat="48.21188" lon="6.70916">
        <ele>503.7</ele>
        <time>2023-04-08T08:40:33Z</time>
      </trkpt>
      <trkpt lat="48.21186" lon="6.7093">
        <ele>503</ele>
        <time>2023-04-08T08:40:42Z</time>
      </trkpt>
      <trkpt lat="48.21192" lon="6.70942">
        <ele>502.3</ele>
        <time>2023-04-08T08:40:49Z</time>
      </trkpt>
      <trkpt lat="48.21195" lon="6.70956">
        <ele>501.8</ele>
        <time>2023-04-08T08:40:57Z</time>
      </trkpt>
      <trkpt lat="48.21201" lon="6.70968">
        <ele>501.4</ele>
        <time>2023-04-08T08:41:05Z</time>
      </trkpt>
      <trkpt lat="48.21206" lon="6.7098">
        <ele>500.9</ele>
        <time>2023-04-08T08:41:12Z</time>
      </trkpt>
      <trkpt lat="48.21211" lon="6.70994">
        <ele>500.3</ele>
        <time>2023-04-08T08:41:19Z</time>
      </trkpt>
      <trkpt lat="48.21215" lon="6.71006">
        <ele>499.6</ele>
        <time>2023-04-08T08:41:27Z</time>
      </trkpt>
      <trkpt lat="48.21222" lon="6.71016">
        <ele>498.9</ele>
        <time>2023-04-08T08:41:36Z</time>
      </trkpt>
      <trkpt lat="48.21225" lon="6.7103">
        <ele>498.2</ele>
        <time>2023-04-08T08:41:44Z</time>
      </trkpt>
      <trkpt lat="48.21228" lon="6.71044">
        <ele>497.5</ele>
        <time>2023-04-08T08:41:51Z</time>
      </trkpt>
      <trkpt lat="48.21233" lon="6.71057">
        <ele>496.7</ele>
        <time>2023-04-08T08:41:57Z</time>
      </trkpt>
      <trkpt lat="48.21239" lon="6.71067">
        <ele>494.4</ele>
        <time>2023-04-08T08:42:04Z</time>
      </trkpt>
      <trkpt lat="48.21246" lon="6.71076">
        <ele>489.1</ele>
        <time>2023-04-08T08:42:12Z</time>
      </trkpt>
      <trkpt lat="48.21251" lon="6.71089">
        <ele>481.1</ele>
        <time>2023-04-08T08:42:19Z</time>
      </trkpt>
      <trkpt lat="48.21259" lon="6.71097">
        <ele>480</ele>
        <time>2023-04-08T08:42:27Z</time>
      </trkpt>
      <trkpt lat="48.21261" lon="6.7111">
        <ele>479.1</ele>
        <time>2023-04-08T08:42:36Z</time>
      </trkpt>
      <trkpt lat="48.21262" lon="6.71112">
        <ele>478.9</ele>
        <time>2023-04-08T08:42:43Z</time>
      </trkpt>
      <trkpt lat="48.21263" lon="6.71111">
        <ele>478.8</ele>
        <time>2023-04-08T08:42:44Z</time>
      </trkpt>
      <trkpt lat="48.21263" lon="6.71114">
        <ele>478.6</ele>
        <time>2023-04-08T08:42:52Z</time>
      </trkpt>
      <trkpt lat="48.21263" lon="6.71115">
        <ele>478.6</ele>
        <time>2023-04-08T08:42:53Z</time>
      </trkpt>
      <trkpt lat="48.21257" lon="6.71125">
        <ele>477.9</ele>
        <time>2023-04-08T08:43:01Z</time>
      </trkpt>
      <trkpt lat="48.21255" lon="6.71139">
        <ele>477.3</ele>
        <time>2023-04-08T08:43:07Z</time>
      </trkpt>
      <trkpt lat="48.21251" lon="6.71153">
        <ele>476.7</ele>
        <time>2023-04-08T08:43:15Z</time>
      </trkpt>
      <trkpt lat="48.2125" lon="6.71168">
        <ele>476.2</ele>
        <time>2023-04-08T08:43:21Z</time>
      </trkpt>
      <trkpt lat="48.21247" lon="6.71181">
        <ele>475.8</ele>
        <time>2023-04-08T08:43:31Z</time>
      </trkpt>
      <trkpt lat="48.21244" lon="6.71195">
        <ele>475.3</ele>
        <time>2023-04-08T08:43:38Z</time>
      </trkpt>
      <trkpt lat="48.21244" lon="6.7121">
        <ele>474.9</ele>
        <time>2023-04-08T08:43:43Z</time>
      </trkpt>
      <trkpt lat="48.21244" lon="6.71223">
        <ele>474.5</ele>
        <time>2023-04-08T08:43:50Z</time>
      </trkpt>
      <trkpt lat="48.21242" lon="6.71237">
        <ele>474.2</ele>
        <time>2023-04-08T08:43:59Z</time>
      </trkpt>
      <trkpt lat="48.2124" lon="6.71251">
        <ele>473.8</ele>
        <time>2023-04-08T08:44:08Z</time>
      </trkpt>
      <trkpt lat="48.21239" lon="6.71264">
        <ele>473.5</ele>
        <time>2023-04-08T08:44:15Z</time>
      </trkpt>
      <trkpt lat="48.21237" lon="6.71278">
        <ele>473.1</ele>
        <time>2023-04-08T08:44:24Z</time>
      </trkpt>
      <trkpt lat="48.21235" lon="6.71292">
        <ele>472.8</ele>
        <time>2023-04-08T08:44:39Z</time>
      </trkpt>
      <trkpt lat="48.21234" lon="6.71294">
        <ele>472.8</ele>
        <time>2023-04-08T08:44:44Z</time>
      </trkpt>
      <trkpt lat="48.21233" lon="6.71294">
        <ele>472.8</ele>
        <time>2023-04-08T08:44:49Z</time>
      </trkpt>
      <trkpt lat="48.21231" lon="6.71308">
        <ele>472.6</ele>
        <time>2023-04-08T08:44:57Z</time>
      </trkpt>
      <trkpt lat="48.21224" lon="6.71317">
        <ele>472.5</ele>
        <time>2023-04-08T08:45:12Z</time>
      </trkpt>
      <trkpt lat="48.21221" lon="6.71331">
        <ele>472.4</ele>
        <time>2023-04-08T08:45:20Z</time>
      </trkpt>
      <trkpt lat="48.21218" lon="6.71346">
        <ele>472</ele>
        <time>2023-04-08T08:45:28Z</time>
      </trkpt>
      <trkpt lat="48.21215" lon="6.7136">
        <ele>471.7</ele>
        <time>2023-04-08T08:45:36Z</time>
      </trkpt>
      <trkpt lat="48.21211" lon="6.71373">
        <ele>471.4</ele>
        <time>2023-04-08T08:45:44Z</time>
      </trkpt>
      <trkpt lat="48.21206" lon="6.71385">
        <ele>471.2</ele>
        <time>2023-04-08T08:45:52Z</time>
      </trkpt>
      <trkpt lat="48.21205" lon="6.71399">
        <ele>471</ele>
        <time>2023-04-08T08:45:59Z</time>
      </trkpt>
      <trkpt lat="48.21205" lon="6.71413">
        <ele>470.9</ele>
        <time>2023-04-08T08:46:12Z</time>
      </trkpt>
      <trkpt lat="48.21206" lon="6.71414">
        <ele>470.9</ele>
        <time>2023-04-08T08:46:18Z</time>
      </trkpt>
      <trkpt lat="48.21206" lon="6.71414">
        <ele>470.9</ele>
        <time>2023-04-08T08:46:20Z</time>
      </trkpt>
      <trkpt lat="48.21208" lon="6.714">
        <ele>471.1</ele>
        <time>2023-04-08T08:46:28Z</time>
      </trkpt>
      <trkpt lat="48.21207" lon="6.71386">
        <ele>471.2</ele>
        <time>2023-04-08T08:46:36Z</time>
      </trkpt>
      <trkpt lat="48.21212" lon="6.71372">
        <ele>471.4</ele>
        <time>2023-04-08T08:46:44Z</time>
      </trkpt>
      <trkpt lat="48.21215" lon="6.71357">
        <ele>471.7</ele>
        <time>2023-04-08T08:46:52Z</time>
      </trkpt>
      <trkpt lat="48.21217" lon="6.71344">
        <ele>472</ele>
        <time>2023-04-08T08:46:59Z</time>
      </trkpt>
      <trkpt lat="48.21217" lon="6.7133">
        <ele>472.3</ele>
        <time>2023-04-08T08:47:07Z</time>
      </trkpt>
      <trkpt lat="48.2122" lon="6.71317">
        <ele>472.5</ele>
        <time>2023-04-08T08:47:15Z</time>
      </trkpt>
      <trkpt lat="48.21226" lon="6.71305">
        <ele>472.6</ele>
        <time>2023-04-08T08:47:22Z</time>
      </trkpt>
      <trkpt lat="48.21228" lon="6.7129">
        <ele>472.8</ele>
        <time>2023-04-08T08:47:29Z</time>
      </trkpt>
      <trkpt lat="48.21232" lon="6.71276">
        <ele>473.1</ele>
        <time>2023-04-08T08:47:37Z</time>
      </trkpt>
      <trkpt lat="48.21232" lon="6.71271">
        <ele>473.2</ele>
        <time>2023-04-08T08:47:42Z</time>
      </trkpt>
      <trkpt lat="48.21233" lon="6.71271">
        <ele>473.2</ele>
        <time>2023-04-08T08:47:46Z</time>
      </trkpt>
      <trkpt lat="48.21239" lon="6.71259">
        <ele>473.6</ele>
        <time>2023-04-08T08:47:56Z</time>
      </trkpt>
      <trkpt lat="48.21238" lon="6.71248">
        <ele>473.9</ele>
        <time>2023-04-08T08:48:06Z</time>
      </trkpt>
      <trkpt lat="48.21239" lon="6.71247">
        <ele>473.9</ele>
        <time>2023-04-08T08:48:07Z</time>
      </trkpt>
      <trkpt lat="48.21242" lon="6.71234">
        <ele>474</ele>
        <time>2023-04-08T08:48:15Z</time>
      </trkpt>
      <trkpt lat="48.2125" lon="6.71226">
        <ele>473</ele>
        <time>2023-04-08T08:48:23Z</time>
      </trkpt>
      <trkpt lat="48.21257" lon="6.71216">
        <ele>471.9</ele>
        <time>2023-04-08T08:48:30Z</time>
      </trkpt>
      <trkpt lat="48.21265" lon="6.71208">
        <ele>470.8</ele>
        <time>2023-04-08T08:48:38Z</time>
      </trkpt>
      <trkpt lat="48.21273" lon="6.712">
        <ele>469.7</ele>
        <time>2023-04-08T08:48:45Z</time>
      </trkpt>
      <trkpt lat="48.2128" lon="6.71191">
        <ele>468.7</ele>
        <time>2023-04-08T08:48:52Z</time>
      </trkpt>
      <trkpt lat="48.21288" lon="6.71183">
        <ele>467.7</ele>
        <time>2023-04-08T08:49:01Z</time>
      </trkpt>
      <trkpt lat="48.21296" lon="6.71178">
        <ele>466.6</ele>
        <time>2023-04-08T08:49:11Z</time>
      </trkpt>
      <trkpt lat="48.21306" lon="6.71177">
        <ele>465.6</ele>
        <time>2023-04-08T08:49:21Z</time>
      </trkpt>
      <trkpt lat="48.21315" lon="6.71177">
        <ele>464.5</ele>
        <time>2023-04-08T08:49:31Z</time>
      </trkpt>
      <trkpt lat="48.21324" lon="6.71174">
        <ele>463.4</ele>
        <time>2023-04-08T08:49:41Z</time>
      </trkpt>
      <trkpt lat="48.21333" lon="6.7117">
        <ele>462.4</ele>
        <time>2023-04-08T08:49:50Z</time>
      </trkpt>
      <trkpt lat="48.21343" lon="6.71167">
        <ele>461.3</ele>
        <time>2023-04-08T08:49:58Z</time>
      </trkpt>
      <trkpt lat="48.21352" lon="6.7117">
        <ele>460.4</ele>
        <time>2023-04-08T08:50:06Z</time>
      </trkpt>
      <trkpt lat="48.21361" lon="6.71165">
        <ele>459.4</ele>
        <time>2023-04-08T08:50:15Z</time>
      </trkpt>
      <trkpt lat="48.21369" lon="6.71156">
        <ele>458.4</ele>
        <time>2023-04-08T08:50:26Z</time>
      </trkpt>
      <trkpt lat="48.21376" lon="6.71149">
        <ele>457.4</ele>
        <time>2023-04-08T08:50:36Z</time>
      </trkpt>
      <trkpt lat="48.21385" lon="6.71141">
        <ele>456.4</ele>
        <time>2023-04-08T08:50:43Z</time>
      </trkpt>
      <trkpt lat="48.21393" lon="6.71133">
        <ele>455.4</ele>
        <time>2023-04-08T08:50:50Z</time>
      </trkpt>
      <trkpt lat="48.214" lon="6.71123">
        <ele>454.4</ele>
        <time>2023-04-08T08:50:57Z</time>
      </trkpt>
      <trkpt lat="48.21406" lon="6.71114">
        <ele>453.4</ele>
        <time>2023-04-08T08:51:04Z</time>
      </trkpt>
      <trkpt lat="48.21413" lon="6.71105">
        <ele>452.4</ele>
        <time>2023-04-08T08:51:12Z</time>
      </trkpt>
      <trkpt lat="48.21419" lon="6.71094">
        <ele>451.5</ele>
        <time>2023-04-08T08:51:21Z</time>
      </trkpt>
      <trkpt lat="48.21428" lon="6.71087">
        <ele>450.4</ele>
        <time>2023-04-08T08:51:28Z</time>
      </trkpt>
      <trkpt lat="48.21435" lon="6.71076">
        <ele>449.7</ele>
        <time>2023-04-08T08:51:35Z</time>
      </trkpt>
      <trkpt lat="48.21438" lon="6.71062">
        <ele>449.2</ele>
        <time>2023-04-08T08:51:43Z</time>
      </trkpt>
      <trkpt lat="48.21442" lon="6.71049">
        <ele>448.7</ele>
        <time>2023-04-08T08:51:51Z</time>
      </trkpt>
      <trkpt lat="48.21446" lon="6.71035">
        <ele>448.4</ele>
        <time>2023-04-08T08:51:59Z</time>
      </trkpt>
      <trkpt lat="48.21451" lon="6.71024">
        <ele>448.1</ele>
        <time>2023-04-08T08:52:07Z</time>
      </trkpt>
      <trkpt lat="48.21457" lon="6.71012">
        <ele>447.8</ele>
        <time>2023-04-08T08:52:15Z</time>
      </trkpt>
      <trkpt lat="48.21462" lon="6.71001">
        <ele>447.6</ele>
        <time>2023-04-08T08:52:23Z</time>
      </trkpt>
      <trkpt lat="48.21468" lon="6.70989">
        <ele>447.4</ele>
        <time>2023-04-08T08:52:32Z</time>
      </trkpt>
      <trkpt lat="48.21475" lon="6.70978">
        <ele>447.3</ele>
        <time>2023-04-08T08:52:40Z</time>
      </trkpt>
      <trkpt lat="48.21483" lon="6.70969">
        <ele>447.2</ele>
        <time>2023-04-08T08:52:48Z</time>
      </trkpt>
      <trkpt lat="48.21493" lon="6.70968">
        <ele>447.9</ele>
        <time>2023-04-08T08:52:57Z</time>
      </trkpt>
      <trkpt lat="48.21502" lon="6.70974">
        <ele>448.8</ele>
        <time>2023-04-08T08:53:04Z</time>
      </trkpt>
      <trkpt lat="48.21509" lon="6.70984">
        <ele>449.7</ele>
        <time>2023-04-08T08:53:13Z</time>
      </trkpt>
      <trkpt lat="48.21516" lon="6.70994">
        <ele>450.8</ele>
        <time>2023-04-08T08:53:21Z</time>
      </trkpt>
      <trkpt lat="48.21524" lon="6.71003">
        <ele>452.2</ele>
        <time>2023-04-08T08:53:29Z</time>
      </trkpt>
      <trkpt lat="48.21531" lon="6.71013">
        <ele>453.7</ele>
        <time>2023-04-08T08:53:37Z</time>
      </trkpt>
      <trkpt lat="48.21537" lon="6.71023">
        <ele>455.1</ele>
        <time>2023-04-08T08:53:44Z</time>
      </trkpt>
      <trkpt lat="48.21544" lon="6.71033">
        <ele>456.4</ele>
        <time>2023-04-08T08:53:52Z</time>
      </trkpt>
      <trkpt lat="48.21552" lon="6.71038">
        <ele>457.8</ele>
        <time>2023-04-08T08:54:01Z</time>
      </trkpt>
      <trkpt lat="48.21557" lon="6.71025">
        <ele>458.4</ele>
        <time>2023-04-08T08:54:10Z</time>
      </trkpt>
      <trkpt lat="48.21563" lon="6.71015">
        <ele>458.7</ele>
        <time>2023-04-08T08:54:17Z</time>
      </trkpt>
      <trkpt lat="48.21569" lon="6.71002">
        <ele>459.1</ele>
        <time>2023-04-08T08:54:25Z</time>
      </trkpt>
      <trkpt lat="48.21574" lon="6.70989">
        <ele>459.4</ele>
        <time>2023-04-08T08:54:33Z</time>
      </trkpt>
      <trkpt lat="48.21577" lon="6.70975">
        <ele>459.7</ele>
        <time>2023-04-08T08:54:41Z</time>
      </trkpt>
      <trkpt lat="48.21582" lon="6.70962">
        <ele>459.9</ele>
        <time>2023-04-08T08:54:49Z</time>
      </trkpt>
      <trkpt lat="48.21586" lon="6.70948">
        <ele>459.9</ele>
        <time>2023-04-08T08:54:57Z</time>
      </trkpt>
      <trkpt lat="48.21589" lon="6.70934">
        <ele>459.6</ele>
        <time>2023-04-08T08:55:05Z</time>
      </trkpt>
      <trkpt lat="48.21594" lon="6.7092">
        <ele>459.2</ele>
        <time>2023-04-08T08:55:13Z</time>
      </trkpt>
      <trkpt lat="48.21601" lon="6.70909">
        <ele>458.7</ele>
        <time>2023-04-08T08:55:21Z</time>
      </trkpt>
      <trkpt lat="48.21603" lon="6.70896">
        <ele>458</ele>
        <time>2023-04-08T08:55:29Z</time>
      </trkpt>
      <trkpt lat="48.21609" lon="6.70883">
        <ele>457.2</ele>
        <time>2023-04-08T08:55:37Z</time>
      </trkpt>
      <trkpt lat="48.21614" lon="6.70871">
        <ele>456.4</ele>
        <time>2023-04-08T08:55:46Z</time>
      </trkpt>
      <trkpt lat="48.2162" lon="6.7086">
        <ele>455.6</ele>
        <time>2023-04-08T08:55:54Z</time>
      </trkpt>
      <trkpt lat="48.21626" lon="6.70847">
        <ele>454.5</ele>
        <time>2023-04-08T08:56:03Z</time>
      </trkpt>
      <trkpt lat="48.21632" lon="6.70835">
        <ele>453.5</ele>
        <time>2023-04-08T08:56:11Z</time>
      </trkpt>
      <trkpt lat="48.21638" lon="6.70823">
        <ele>452.6</ele>
        <time>2023-04-08T08:56:19Z</time>
      </trkpt>
      <trkpt lat="48.21647" lon="6.70815">
        <ele>451.6</ele>
        <time>2023-04-08T08:56:27Z</time>
      </trkpt>
      <trkpt lat="48.21656" lon="6.7081">
        <ele>450.8</ele>
        <time>2023-04-08T08:56:35Z</time>
      </trkpt>
      <trkpt lat="48.21664" lon="6.70803">
        <ele>449.9</ele>
        <time>2023-04-08T08:56:43Z</time>
      </trkpt>
      <trkpt lat="48.21673" lon="6.70799">
        <ele>449.1</ele>
        <time>2023-04-08T08:56:52Z</time>
      </trkpt>
      <trkpt lat="48.21682" lon="6.70795">
        <ele>448.3</ele>
        <time>2023-04-08T08:56:59Z</time>
      </trkpt>
      <trkpt lat="48.21691" lon="6.70792">
        <ele>447.4</ele>
        <time>2023-04-08T08:57:08Z</time>
      </trkpt>
      <trkpt lat="48.21702" lon="6.70789">
        <ele>446.6</ele>
        <time>2023-04-08T08:57:15Z</time>
      </trkpt>
      <trkpt lat="48.21711" lon="6.70786">
        <ele>445.9</ele>
        <time>2023-04-08T08:57:22Z</time>
      </trkpt>
      <trkpt lat="48.2172" lon="6.70784">
        <ele>445.3</ele>
        <time>2023-04-08T08:57:28Z</time>
      </trkpt>
      <trkpt lat="48.21729" lon="6.70783">
        <ele>444.8</ele>
        <time>2023-04-08T08:57:35Z</time>
      </trkpt>
      <trkpt lat="48.21739" lon="6.70781">
        <ele>444.3</ele>
        <time>2023-04-08T08:57:43Z</time>
      </trkpt>
      <trkpt lat="48.21748" lon="6.70778">
        <ele>443.7</ele>
        <time>2023-04-08T08:57:51Z</time>
      </trkpt>
      <trkpt lat="48.21758" lon="6.70776">
        <ele>443.1</ele>
        <time>2023-04-08T08:57:59Z</time>
      </trkpt>
      <trkpt lat="48.21768" lon="6.70773">
        <ele>442.5</ele>
        <time>2023-04-08T08:58:06Z</time>
      </trkpt>
      <trkpt lat="48.21777" lon="6.70771">
        <ele>442.1</ele>
        <time>2023-04-08T08:58:13Z</time>
      </trkpt>
      <trkpt lat="48.21786" lon="6.70767">
        <ele>441.6</ele>
        <time>2023-04-08T08:58:21Z</time>
      </trkpt>
      <trkpt lat="48.21795" lon="6.70763">
        <ele>441</ele>
        <time>2023-04-08T08:58:29Z</time>
      </trkpt>
      <trkpt lat="48.21805" lon="6.70758">
        <ele>440.3</ele>
        <time>2023-04-08T08:58:40Z</time>
      </trkpt>
      <trkpt lat="48.21814" lon="6.70755">
        <ele>439.8</ele>
        <time>2023-04-08T08:58:47Z</time>
      </trkpt>
      <trkpt lat="48.21824" lon="6.70754">
        <ele>439.3</ele>
        <time>2023-04-08T08:58:54Z</time>
      </trkpt>
      <trkpt lat="48.21834" lon="6.70753">
        <ele>438.7</ele>
        <time>2023-04-08T08:59:01Z</time>
      </trkpt>
      <trkpt lat="48.21842" lon="6.70755">
        <ele>438.2</ele>
        <time>2023-04-08T08:59:13Z</time>
      </trkpt>
      <trkpt lat="48.21842" lon="6.70755">
        <ele>438.2</ele>
        <time>2023-04-08T08:59:17Z</time>
      </trkpt>
      <trkpt lat="48.21842" lon="6.70755">
        <ele>438.2</ele>
        <time>2023-04-08T08:59:18Z</time>
      </trkpt>
      <trkpt lat="48.21843" lon="6.70755">
        <ele>438.1</ele>
        <time>2023-04-08T08:59:21Z</time>
      </trkpt>
      <trkpt lat="48.21852" lon="6.70751">
        <ele>437.6</ele>
        <time>2023-04-08T08:59:33Z</time>
      </trkpt>
      <trkpt lat="48.21862" lon="6.70747">
        <ele>437.1</ele>
        <time>2023-04-08T08:59:43Z</time>
      </trkpt>
      <trkpt lat="48.2187" lon="6.70742">
        <ele>436.5</ele>
        <time>2023-04-08T08:59:52Z</time>
      </trkpt>
      <trkpt lat="48.21879" lon="6.70737">
        <ele>436</ele>
        <time>2023-04-08T09:00:01Z</time>
      </trkpt>
      <trkpt lat="48.21888" lon="6.70735">
        <ele>435.5</ele>
        <time>2023-04-08T09:00:09Z</time>
      </trkpt>
      <trkpt lat="48.21897" lon="6.70729">
        <ele>435</ele>
        <time>2023-04-08T09:00:18Z</time>
      </trkpt>
      <trkpt lat="48.21907" lon="6.70729">
        <ele>434.4</ele>
        <time>2023-04-08T09:00:26Z</time>
      </trkpt>
      <trkpt lat="48.21916" lon="6.70729">
        <ele>433.8</ele>
        <time>2023-04-08T09:00:34Z</time>
      </trkpt>
      <trkpt lat="48.21925" lon="6.70728">
        <ele>433.3</ele>
        <time>2023-04-08T09:00:44Z</time>
      </trkpt>
      <trkpt lat="48.21926" lon="6.70728">
        <ele>433.3</ele>
        <time>2023-04-08T09:00:47Z</time>
      </trkpt>
      <trkpt lat="48.21927" lon="6.70728">
        <ele>433.2</ele>
        <time>2023-04-08T09:00:48Z</time>
      </trkpt>
      <trkpt lat="48.21936" lon="6.70724">
        <ele>432.9</ele>
        <time>2023-04-08T09:00:55Z</time>
      </trkpt>
      <trkpt lat="48.21945" lon="6.70718">
        <ele>432.6</ele>
        <time>2023-04-08T09:01:02Z</time>
      </trkpt>
      <trkpt lat="48.21954" lon="6.70714">
        <ele>432.5</ele>
        <time>2023-04-08T09:01:11Z</time>
      </trkpt>
      <trkpt lat="48.21963" lon="6.70709">
        <ele>432.4</ele>
        <time>2023-04-08T09:01:19Z</time>
      </trkpt>
      <trkpt lat="48.21971" lon="6.70702">
        <ele>432.4</ele>
        <time>2023-04-08T09:01:28Z</time>
      </trkpt>
      <trkpt lat="48.21979" lon="6.70694">
        <ele>432.5</ele>
        <time>2023-04-08T09:01:36Z</time>
      </trkpt>
      <trkpt lat="48.21988" lon="6.70691">
        <ele>432.6</ele>
        <time>2023-04-08T09:01:44Z</time>
      </trkpt>
      <trkpt lat="48.21999" lon="6.70692">
        <ele>433</ele>
        <time>2023-04-08T09:01:54Z</time>
      </trkpt>
      <trkpt lat="48.22008" lon="6.70693">
        <ele>433.5</ele>
        <time>2023-04-08T09:02:03Z</time>
      </trkpt>
      <trkpt lat="48.22017" lon="6.70694">
        <ele>434</ele>
        <time>2023-04-08T09:02:10Z</time>
      </trkpt>
      <trkpt lat="48.22027" lon="6.70693">
        <ele>434.6</ele>
        <time>2023-04-08T09:02:16Z</time>
      </trkpt>
      <trkpt lat="48.22037" lon="6.70696">
        <ele>435.2</ele>
        <time>2023-04-08T09:02:24Z</time>
      </trkpt>
      <trkpt lat="48.22046" lon="6.70698">
        <ele>435.7</ele>
        <time>2023-04-08T09:02:32Z</time>
      </trkpt>
      <trkpt lat="48.22056" lon="6.707">
        <ele>436.2</ele>
        <time>2023-04-08T09:02:40Z</time>
      </trkpt>
      <trkpt lat="48.22065" lon="6.70698">
        <ele>436.4</ele>
        <time>2023-04-08T09:02:48Z</time>
      </trkpt>
      <trkpt lat="48.22074" lon="6.707">
        <ele>436.6</ele>
        <time>2023-04-08T09:02:55Z</time>
      </trkpt>
      <trkpt lat="48.22084" lon="6.70701">
        <ele>436.7</ele>
        <time>2023-04-08T09:03:00Z</time>
      </trkpt>
      <trkpt lat="48.22094" lon="6.70697">
        <ele>436.9</ele>
        <time>2023-04-08T09:03:08Z</time>
      </trkpt>
      <trkpt lat="48.22103" lon="6.70698">
        <ele>437</ele>
        <time>2023-04-08T09:03:14Z</time>
      </trkpt>
      <trkpt lat="48.22113" lon="6.707">
        <ele>437</ele>
        <time>2023-04-08T09:03:25Z</time>
      </trkpt>
      <trkpt lat="48.22123" lon="6.70703">
        <ele>437.1</ele>
        <time>2023-04-08T09:03:31Z</time>
      </trkpt>
      <trkpt lat="48.22132" lon="6.70706">
        <ele>437</ele>
        <time>2023-04-08T09:03:39Z</time>
      </trkpt>
      <trkpt lat="48.22142" lon="6.70706">
        <ele>436.9</ele>
        <time>2023-04-08T09:03:48Z</time>
      </trkpt>
      <trkpt lat="48.22152" lon="6.70711">
        <ele>436.8</ele>
        <time>2023-04-08T09:03:55Z</time>
      </trkpt>
      <trkpt lat="48.22161" lon="6.70715">
        <ele>436.6</ele>
        <time>2023-04-08T09:04:02Z</time>
      </trkpt>
      <trkpt lat="48.2217" lon="6.70721">
        <ele>436.4</ele>
        <time>2023-04-08T09:04:10Z</time>
      </trkpt>
      <trkpt lat="48.22178" lon="6.70728">
        <ele>436.2</ele>
        <time>2023-04-08T09:04:17Z</time>
      </trkpt>
      <trkpt lat="48.22187" lon="6.70732">
        <ele>435.9</ele>
        <time>2023-04-08T09:04:25Z</time>
      </trkpt>
      <trkpt lat="48.22198" lon="6.70733">
        <ele>435.5</ele>
        <time>2023-04-08T09:04:33Z</time>
      </trkpt>
      <trkpt lat="48.22208" lon="6.70735">
        <ele>435.1</ele>
        <time>2023-04-08T09:04:42Z</time>
      </trkpt>
      <trkpt lat="48.22217" lon="6.70739">
        <ele>434.7</ele>
        <time>2023-04-08T09:04:50Z</time>
      </trkpt>
      <trkpt lat="48.22225" lon="6.70746">
        <ele>434.1</ele>
        <time>2023-04-08T09:04:57Z</time>
      </trkpt>
      <trkpt lat="48.22234" lon="6.70752">
        <ele>433.5</ele>
        <time>2023-04-08T09:05:02Z</time>
      </trkpt>
      <trkpt lat="48.22241" lon="6.70763">
        <ele>432.7</ele>
        <time>2023-04-08T09:05:11Z</time>
      </trkpt>
      <trkpt lat="48.2225" lon="6.70769">
        <ele>432.1</ele>
        <time>2023-04-08T09:05:18Z</time>
      </trkpt>
      <trkpt lat="48.22259" lon="6.70772">
        <ele>431.6</ele>
        <time>2023-04-08T09:05:27Z</time>
      </trkpt>
      <trkpt lat="48.22268" lon="6.70773">
        <ele>431.2</ele>
        <time>2023-04-08T09:05:34Z</time>
      </trkpt>
      <trkpt lat="48.22278" lon="6.70775">
        <ele>431</ele>
        <time>2023-04-08T09:05:42Z</time>
      </trkpt>
      <trkpt lat="48.22287" lon="6.70776">
        <ele>431</ele>
        <time>2023-04-08T09:05:49Z</time>
      </trkpt>
      <trkpt lat="48.22297" lon="6.7078">
        <ele>431.2</ele>
        <time>2023-04-08T09:05:58Z</time>
      </trkpt>
      <trkpt lat="48.22307" lon="6.70784">
        <ele>431.5</ele>
        <time>2023-04-08T09:06:06Z</time>
      </trkpt>
      <trkpt lat="48.22316" lon="6.70786">
        <ele>431.9</ele>
        <time>2023-04-08T09:06:15Z</time>
      </trkpt>
      <trkpt lat="48.22326" lon="6.70788">
        <ele>432.2</ele>
        <time>2023-04-08T09:06:23Z</time>
      </trkpt>
      <trkpt lat="48.22335" lon="6.70791">
        <ele>432.4</ele>
        <time>2023-04-08T09:06:28Z</time>
      </trkpt>
      <trkpt lat="48.22344" lon="6.70796">
        <ele>432.3</ele>
        <time>2023-04-08T09:06:34Z</time>
      </trkpt>
      <trkpt lat="48.22352" lon="6.70805">
        <ele>432.1</ele>
        <time>2023-04-08T09:06:45Z</time>
      </trkpt>
      <trkpt lat="48.22347" lon="6.70812">
        <ele>431.8</ele>
        <time>2023-04-08T09:06:57Z</time>
      </trkpt>
      <trkpt lat="48.22347" lon="6.70813">
        <ele>431.8</ele>
        <time>2023-04-08T09:07:09Z</time>
      </trkpt>
      <trkpt lat="48.22347" lon="6.70813">
        <ele>431.8</ele>
        <time>2023-04-08T09:07:10Z</time>
      </trkpt>
      <trkpt lat="48.22347" lon="6.70814">
        <ele>431.8</ele>
        <time>2023-04-08T09:07:14Z</time>
      </trkpt>
      <trkpt lat="48.2235" lon="6.70819">
        <ele>431.5</ele>
        <time>2023-04-08T09:07:21Z</time>
      </trkpt>
      <trkpt lat="48.2235" lon="6.7082">
        <ele>431.5</ele>
        <time>2023-04-08T09:07:22Z</time>
      </trkpt>
      <trkpt lat="48.22353" lon="6.70833">
        <ele>431</ele>
        <time>2023-04-08T09:07:35Z</time>
      </trkpt>
      <trkpt lat="48.22357" lon="6.70846">
        <ele>430.5</ele>
        <time>2023-04-08T09:07:43Z</time>
      </trkpt>
      <trkpt lat="48.2236" lon="6.70854">
        <ele>430.2</ele>
        <time>2023-04-08T09:07:50Z</time>
      </trkpt>
      <trkpt lat="48.2236" lon="6.70854">
        <ele>430.2</ele>
        <time>2023-04-08T09:07:55Z</time>
      </trkpt>
      <trkpt lat="48.22362" lon="6.70868">
        <ele>429.7</ele>
        <time>2023-04-08T09:08:04Z</time>
      </trkpt>
      <trkpt lat="48.22362" lon="6.70868">
        <ele>429.7</ele>
        <time>2023-04-08T09:08:06Z</time>
      </trkpt>
      <trkpt lat="48.22362" lon="6.70868">
        <ele>429.7</ele>
        <time>2023-04-08T09:08:09Z</time>
      </trkpt>
      <trkpt lat="48.22362" lon="6.70868">
        <ele>429.7</ele>
        <time>2023-04-08T09:08:10Z</time>
      </trkpt>
      <trkpt lat="48.22361" lon="6.70868">
        <ele>429.6</ele>
        <time>2023-04-08T09:08:15Z</time>
      </trkpt>
      <trkpt lat="48.22363" lon="6.70882">
        <ele>429.2</ele>
        <time>2023-04-08T09:08:22Z</time>
      </trkpt>
      <trkpt lat="48.22366" lon="6.70894">
        <ele>428.8</ele>
        <time>2023-04-08T09:08:30Z</time>
      </trkpt>
      <trkpt lat="48.22368" lon="6.70898">
        <ele>428.6</ele>
        <time>2023-04-08T09:08:34Z</time>
      </trkpt>
      <trkpt lat="48.22368" lon="6.70898">
        <ele>428.6</ele>
        <time>2023-04-08T09:08:38Z</time>
      </trkpt>
      <trkpt lat="48.22368" lon="6.70898">
        <ele>428.6</ele>
        <time>2023-04-08T09:08:39Z</time>
      </trkpt>
      <trkpt lat="48.22368" lon="6.70898">
        <ele>428.6</ele>
        <time>2023-04-08T09:08:48Z</time>
      </trkpt>
      <trkpt lat="48.22368" lon="6.70898">
        <ele>428.6</ele>
        <time>2023-04-08T09:08:49Z</time>
      </trkpt>
      <trkpt lat="48.22369" lon="6.70898">
        <ele>428.6</ele>
        <time>2023-04-08T09:09:17Z</time>
      </trkpt>
      <trkpt lat="48.22371" lon="6.70911">
        <ele>428.1</ele>
        <time>2023-04-08T09:09:29Z</time>
      </trkpt>
      <trkpt lat="48.22372" lon="6.70925">
        <ele>427.7</ele>
        <time>2023-04-08T09:09:37Z</time>
      </trkpt>
      <trkpt lat="48.22375" lon="6.70939">
        <ele>427.2</ele>
        <time>2023-04-08T09:09:44Z</time>
      </trkpt>
      <trkpt lat="48.22376" lon="6.70952">
        <ele>426.6</ele>
        <time>2023-04-08T09:09:52Z</time>
      </trkpt>
      <trkpt lat="48.22378" lon="6.70966">
        <ele>425.9</ele>
        <time>2023-04-08T09:10:03Z</time>
      </trkpt>
      <trkpt lat="48.22373" lon="6.70977">
        <ele>425.1</ele>
        <time>2023-04-08T09:10:10Z</time>
      </trkpt>
      <trkpt lat="48.2237" lon="6.70991">
        <ele>424.2</ele>
        <time>2023-04-08T09:10:16Z</time>
      </trkpt>
      <trkpt lat="48.22366" lon="6.71005">
        <ele>423.4</ele>
        <time>2023-04-08T09:10:25Z</time>
      </trkpt>
      <trkpt lat="48.22361" lon="6.71016">
        <ele>422.6</ele>
        <time>2023-04-08T09:10:33Z</time>
      </trkpt>
      <trkpt lat="48.22353" lon="6.71025">
        <ele>421.8</ele>
        <time>2023-04-08T09:10:42Z</time>
      </trkpt>
      <trkpt lat="48.22355" lon="6.71027">
        <ele>421.6</ele>
        <time>2023-04-08T09:10:45Z</time>
      </trkpt>
      <trkpt lat="48.22355" lon="6.71027">
        <ele>421.6</ele>
        <time>2023-04-08T09:10:50Z</time>
      </trkpt>
      <trkpt lat="48.2235" lon="6.71039">
        <ele>420.9</ele>
        <time>2023-04-08T09:11:00Z</time>
      </trkpt>
      <trkpt lat="48.22349" lon="6.71054">
        <ele>420.3</ele>
        <time>2023-04-08T09:11:11Z</time>
      </trkpt>
      <trkpt lat="48.22349" lon="6.71067">
        <ele>419.9</ele>
        <time>2023-04-08T09:11:19Z</time>
      </trkpt>
      <trkpt lat="48.22348" lon="6.71081">
        <ele>419.5</ele>
        <time>2023-04-08T09:11:29Z</time>
      </trkpt>
      <trkpt lat="48.22344" lon="6.71093">
        <ele>419.3</ele>
        <time>2023-04-08T09:11:40Z</time>
      </trkpt>
      <trkpt lat="48.22344" lon="6.71093">
        <ele>419.3</ele>
        <time>2023-04-08T09:11:42Z</time>
      </trkpt>
      <trkpt lat="48.2234" lon="6.71106">
        <ele>419.1</ele>
        <time>2023-04-08T09:11:51Z</time>
      </trkpt>
      <trkpt lat="48.22336" lon="6.71119">
        <ele>419</ele>
        <time>2023-04-08T09:11:58Z</time>
      </trkpt>
      <trkpt lat="48.22334" lon="6.71132">
        <ele>419</ele>
        <time>2023-04-08T09:12:06Z</time>
      </trkpt>
      <trkpt lat="48.22333" lon="6.71146">
        <ele>418.9</ele>
        <time>2023-04-08T09:12:15Z</time>
      </trkpt>
      <trkpt lat="48.22335" lon="6.71161">
        <ele>418.9</ele>
        <time>2023-04-08T09:12:24Z</time>
      </trkpt>
      <trkpt lat="48.22339" lon="6.71173">
        <ele>418.8</ele>
        <time>2023-04-08T09:12:33Z</time>
      </trkpt>
      <trkpt lat="48.22343" lon="6.71186">
        <ele>418.7</ele>
        <time>2023-04-08T09:12:41Z</time>
      </trkpt>
      <trkpt lat="48.22348" lon="6.71198">
        <ele>418.4</ele>
        <time>2023-04-08T09:12:48Z</time>
      </trkpt>
      <trkpt lat="48.22354" lon="6.7121">
        <ele>418.3</ele>
        <time>2023-04-08T09:12:56Z</time>
      </trkpt>
      <trkpt lat="48.22361" lon="6.71218">
        <ele>418.3</ele>
        <time>2023-04-08T09:13:04Z</time>
      </trkpt>
      <trkpt lat="48.22369" lon="6.71225">
        <ele>417.8</ele>
        <time>2023-04-08T09:13:12Z</time>
      </trkpt>
      <trkpt lat="48.22378" lon="6.71233">
        <ele>417.4</ele>
        <time>2023-04-08T09:13:21Z</time>
      </trkpt>
      <trkpt lat="48.22386" lon="6.71241">
        <ele>417</ele>
        <time>2023-04-08T09:13:29Z</time>
      </trkpt>
      <trkpt lat="48.22394" lon="6.7125">
        <ele>416.7</ele>
        <time>2023-04-08T09:13:36Z</time>
      </trkpt>
      <trkpt lat="48.22403" lon="6.71256">
        <ele>416.5</ele>
        <time>2023-04-08T09:13:43Z</time>
      </trkpt>
      <trkpt lat="48.22411" lon="6.71263">
        <ele>416.5</ele>
        <time>2023-04-08T09:13:50Z</time>
      </trkpt>
      <trkpt lat="48.22414" lon="6.71265">
        <ele>416.6</ele>
        <time>2023-04-08T09:13:56Z</time>
      </trkpt>
      <trkpt lat="48.22415" lon="6.71265">
        <ele>416.6</ele>
        <time>2023-04-08T09:14:08Z</time>
      </trkpt>
      <trkpt lat="48.22423" lon="6.71271">
        <ele>417</ele>
        <time>2023-04-08T09:14:17Z</time>
      </trkpt>
      <trkpt lat="48.2243" lon="6.71281">
        <ele>417.4</ele>
        <time>2023-04-08T09:14:27Z</time>
      </trkpt>
      <trkpt lat="48.22437" lon="6.7129">
        <ele>417.9</ele>
        <time>2023-04-08T09:14:35Z</time>
      </trkpt>
      <trkpt lat="48.22445" lon="6.71297">
        <ele>418.4</ele>
        <time>2023-04-08T09:14:42Z</time>
      </trkpt>
      <trkpt lat="48.22455" lon="6.71293">
        <ele>418.6</ele>
        <time>2023-04-08T09:14:50Z</time>
      </trkpt>
      <trkpt lat="48.22461" lon="6.71282">
        <ele>418.5</ele>
        <time>2023-04-08T09:14:57Z</time>
      </trkpt>
      <trkpt lat="48.22468" lon="6.71271">
        <ele>418.4</ele>
        <time>2023-04-08T09:15:04Z</time>
      </trkpt>
      <trkpt lat="48.22474" lon="6.71261">
        <ele>418.3</ele>
        <time>2023-04-08T09:15:11Z</time>
      </trkpt>
      <trkpt lat="48.22481" lon="6.71249">
        <ele>418.2</ele>
        <time>2023-04-08T09:15:19Z</time>
      </trkpt>
      <trkpt lat="48.22488" lon="6.71239">
        <ele>418.1</ele>
        <time>2023-04-08T09:15:27Z</time>
      </trkpt>
      <trkpt lat="48.22495" lon="6.71229">
        <ele>418.1</ele>
        <time>2023-04-08T09:15:34Z</time>
      </trkpt>
      <trkpt lat="48.22501" lon="6.71217">
        <ele>418</ele>
        <time>2023-04-08T09:15:42Z</time>
      </trkpt>
      <trkpt lat="48.22507" lon="6.71206">
        <ele>418</ele>
        <time>2023-04-08T09:15:50Z</time>
      </trkpt>
      <trkpt lat="48.22513" lon="6.71195">
        <ele>417.9</ele>
        <time>2023-04-08T09:15:58Z</time>
      </trkpt>
      <trkpt lat="48.2252" lon="6.71185">
        <ele>417.8</ele>
        <time>2023-04-08T09:16:05Z</time>
      </trkpt>
      <trkpt lat="48.22525" lon="6.71173">
        <ele>417.8</ele>
        <time>2023-04-08T09:16:12Z</time>
      </trkpt>
      <trkpt lat="48.22531" lon="6.71163">
        <ele>417.8</ele>
        <time>2023-04-08T09:16:19Z</time>
      </trkpt>
      <trkpt lat="48.22538" lon="6.71152">
        <ele>417.7</ele>
        <time>2023-04-08T09:16:27Z</time>
      </trkpt>
      <trkpt lat="48.22544" lon="6.71142">
        <ele>417.6</ele>
        <time>2023-04-08T09:16:34Z</time>
      </trkpt>
      <trkpt lat="48.2255" lon="6.71131">
        <ele>417.6</ele>
        <time>2023-04-08T09:16:41Z</time>
      </trkpt>
      <trkpt lat="48.22555" lon="6.7112">
        <ele>417.5</ele>
        <time>2023-04-08T09:16:48Z</time>
      </trkpt>
      <trkpt lat="48.22562" lon="6.71109">
        <ele>417.5</ele>
        <time>2023-04-08T09:16:55Z</time>
      </trkpt>
      <trkpt lat="48.22568" lon="6.71099">
        <ele>417.5</ele>
        <time>2023-04-08T09:17:02Z</time>
      </trkpt>
      <trkpt lat="48.22575" lon="6.71088">
        <ele>417.6</ele>
        <time>2023-04-08T09:17:09Z</time>
      </trkpt>
      <trkpt lat="48.22581" lon="6.71078">
        <ele>417.7</ele>
        <time>2023-04-08T09:17:16Z</time>
      </trkpt>
      <trkpt lat="48.22587" lon="6.71067">
        <ele>417.9</ele>
        <time>2023-04-08T09:17:24Z</time>
      </trkpt>
      <trkpt lat="48.22593" lon="6.71055">
        <ele>418.1</ele>
        <time>2023-04-08T09:17:31Z</time>
      </trkpt>
      <trkpt lat="48.22599" lon="6.71043">
        <ele>418.3</ele>
        <time>2023-04-08T09:17:38Z</time>
      </trkpt>
      <trkpt lat="48.22606" lon="6.71035">
        <ele>418.5</ele>
        <time>2023-04-08T09:17:45Z</time>
      </trkpt>
      <trkpt lat="48.22613" lon="6.71024">
        <ele>418.7</ele>
        <time>2023-04-08T09:17:52Z</time>
      </trkpt>
      <trkpt lat="48.22617" lon="6.71011">
        <ele>419</ele>
        <time>2023-04-08T09:18:00Z</time>
      </trkpt>
      <trkpt lat="48.22622" lon="6.71">
        <ele>419.3</ele>
        <time>2023-04-08T09:18:07Z</time>
      </trkpt>
      <trkpt lat="48.22629" lon="6.70989">
        <ele>419.6</ele>
        <time>2023-04-08T09:18:15Z</time>
      </trkpt>
      <trkpt lat="48.22637" lon="6.7098">
        <ele>419.8</ele>
        <time>2023-04-08T09:18:23Z</time>
      </trkpt>
      <trkpt lat="48.22644" lon="6.70969">
        <ele>420</ele>
        <time>2023-04-08T09:18:31Z</time>
      </trkpt>
      <trkpt lat="48.22652" lon="6.70962">
        <ele>420.2</ele>
        <time>2023-04-08T09:18:38Z</time>
      </trkpt>
      <trkpt lat="48.2266" lon="6.70955">
        <ele>420.3</ele>
        <time>2023-04-08T09:18:44Z</time>
      </trkpt>
      <trkpt lat="48.22667" lon="6.70945">
        <ele>420.4</ele>
        <time>2023-04-08T09:18:51Z</time>
      </trkpt>
      <trkpt lat="48.22674" lon="6.70935">
        <ele>420.4</ele>
        <time>2023-04-08T09:18:57Z</time>
      </trkpt>
      <trkpt lat="48.22681" lon="6.70927">
        <ele>420.5</ele>
        <time>2023-04-08T09:19:03Z</time>
      </trkpt>
      <trkpt lat="48.22688" lon="6.70917">
        <ele>420.5</ele>
        <time>2023-04-08T09:19:11Z</time>
      </trkpt>
      <trkpt lat="48.22696" lon="6.70906">
        <ele>420.5</ele>
        <time>2023-04-08T09:19:18Z</time>
      </trkpt>
      <trkpt lat="48.22702" lon="6.70895">
        <ele>420.5</ele>
        <time>2023-04-08T09:19:26Z</time>
      </trkpt>
      <trkpt lat="48.22711" lon="6.70887">
        <ele>420.5</ele>
        <time>2023-04-08T09:19:33Z</time>
      </trkpt>
      <trkpt lat="48.22717" lon="6.70875">
        <ele>420.5</ele>
        <time>2023-04-08T09:19:41Z</time>
      </trkpt>
      <trkpt lat="48.22724" lon="6.70864">
        <ele>420.3</ele>
        <time>2023-04-08T09:19:49Z</time>
      </trkpt>
      <trkpt lat="48.2273" lon="6.70852">
        <ele>420</ele>
        <time>2023-04-08T09:19:56Z</time>
      </trkpt>
      <trkpt lat="48.22736" lon="6.70841">
        <ele>419.7</ele>
        <time>2023-04-08T09:20:02Z</time>
      </trkpt>
      <trkpt lat="48.22745" lon="6.70834">
        <ele>419.3</ele>
        <time>2023-04-08T09:20:09Z</time>
      </trkpt>
      <trkpt lat="48.22753" lon="6.70825">
        <ele>418.8</ele>
        <time>2023-04-08T09:20:17Z</time>
      </trkpt>
      <trkpt lat="48.22762" lon="6.70816">
        <ele>418.4</ele>
        <time>2023-04-08T09:20:24Z</time>
      </trkpt>
      <trkpt lat="48.22768" lon="6.70806">
        <ele>418.1</ele>
        <time>2023-04-08T09:20:33Z</time>
      </trkpt>
      <trkpt lat="48.22778" lon="6.70798">
        <ele>417.6</ele>
        <time>2023-04-08T09:20:41Z</time>
      </trkpt>
      <trkpt lat="48.22787" lon="6.70789">
        <ele>417.3</ele>
        <time>2023-04-08T09:20:47Z</time>
      </trkpt>
      <trkpt lat="48.22792" lon="6.70776">
        <ele>416.9</ele>
        <time>2023-04-08T09:20:53Z</time>
      </trkpt>
      <trkpt lat="48.22801" lon="6.70771">
        <ele>416.6</ele>
        <time>2023-04-08T09:21:06Z</time>
      </trkpt>
      <trkpt lat="48.22809" lon="6.7076">
        <ele>416.2</ele>
        <time>2023-04-08T09:21:12Z</time>
      </trkpt>
      <trkpt lat="48.22817" lon="6.70751">
        <ele>415.9</ele>
        <time>2023-04-08T09:21:18Z</time>
      </trkpt>
      <trkpt lat="48.22824" lon="6.70742">
        <ele>415.5</ele>
        <time>2023-04-08T09:21:25Z</time>
      </trkpt>
      <trkpt lat="48.22831" lon="6.70731">
        <ele>415.2</ele>
        <time>2023-04-08T09:21:32Z</time>
      </trkpt>
      <trkpt lat="48.22836" lon="6.70719">
        <ele>414.9</ele>
        <time>2023-04-08T09:21:40Z</time>
      </trkpt>
      <trkpt lat="48.22843" lon="6.70709">
        <ele>414.5</ele>
        <time>2023-04-08T09:21:46Z</time>
      </trkpt>
      <trkpt lat="48.2285" lon="6.70698">
        <ele>414.1</ele>
        <time>2023-04-08T09:21:54Z</time>
      </trkpt>
      <trkpt lat="48.22855" lon="6.70685">
        <ele>413.6</ele>
        <time>2023-04-08T09:22:00Z</time>
      </trkpt>
      <trkpt lat="48.22861" lon="6.70674">
        <ele>413.2</ele>
        <time>2023-04-08T09:22:07Z</time>
      </trkpt>
      <trkpt lat="48.22868" lon="6.70666">
        <ele>412.6</ele>
        <time>2023-04-08T09:22:15Z</time>
      </trkpt>
      <trkpt lat="48.22875" lon="6.70656">
        <ele>412</ele>
        <time>2023-04-08T09:22:22Z</time>
      </trkpt>
      <trkpt lat="48.2288" lon="6.70645">
        <ele>411.3</ele>
        <time>2023-04-08T09:22:28Z</time>
      </trkpt>
      <trkpt lat="48.22888" lon="6.70635">
        <ele>410.6</ele>
        <time>2023-04-08T09:22:36Z</time>
      </trkpt>
      <trkpt lat="48.22892" lon="6.70622">
        <ele>410</ele>
        <time>2023-04-08T09:22:44Z</time>
      </trkpt>
      <trkpt lat="48.22898" lon="6.70612">
        <ele>409.4</ele>
        <time>2023-04-08T09:22:52Z</time>
      </trkpt>
      <trkpt lat="48.22903" lon="6.70611">
        <ele>409.1</ele>
        <time>2023-04-08T09:23:21Z</time>
      </trkpt>
      <trkpt lat="48.22902" lon="6.70611">
        <ele>409</ele>
        <time>2023-04-08T09:23:22Z</time>
      </trkpt>
      <trkpt lat="48.22892" lon="6.70614">
        <ele>410.7</ele>
        <time>2023-04-08T09:23:29Z</time>
      </trkpt>
      <trkpt lat="48.22883" lon="6.70618">
        <ele>409.9</ele>
        <time>2023-04-08T09:23:36Z</time>
      </trkpt>
      <trkpt lat="48.22873" lon="6.7062">
        <ele>409.1</ele>
        <time>2023-04-08T09:23:46Z</time>
      </trkpt>
      <trkpt lat="48.22864" lon="6.70614">
        <ele>408.3</ele>
        <time>2023-04-08T09:23:55Z</time>
      </trkpt>
      <trkpt lat="48.22855" lon="6.70612">
        <ele>407.2</ele>
        <time>2023-04-08T09:24:04Z</time>
      </trkpt>
      <trkpt lat="48.22847" lon="6.70604">
        <ele>407.1</ele>
        <time>2023-04-08T09:24:14Z</time>
      </trkpt>
      <trkpt lat="48.22841" lon="6.70594">
        <ele>406.5</ele>
        <time>2023-04-08T09:24:23Z</time>
      </trkpt>
      <trkpt lat="48.22831" lon="6.70589">
        <ele>405.8</ele>
        <time>2023-04-08T09:24:38Z</time>
      </trkpt>
      <trkpt lat="48.22828" lon="6.7058">
        <ele>405.6</ele>
        <time>2023-04-08T09:24:44Z</time>
      </trkpt>
      <trkpt lat="48.22828" lon="6.7058">
        <ele>405.5</ele>
        <time>2023-04-08T09:24:46Z</time>
      </trkpt>
      <trkpt lat="48.22828" lon="6.70578">
        <ele>405.2</ele>
        <time>2023-04-08T09:24:51Z</time>
      </trkpt>
      <trkpt lat="48.22827" lon="6.70577">
        <ele>405.1</ele>
        <time>2023-04-08T09:24:52Z</time>
      </trkpt>
      <trkpt lat="48.22827" lon="6.70575">
        <ele>405</ele>
        <time>2023-04-08T09:24:57Z</time>
      </trkpt>
      <trkpt lat="48.22827" lon="6.70575">
        <ele>404.9</ele>
        <time>2023-04-08T09:24:58Z</time>
      </trkpt>
      <trkpt lat="48.22826" lon="6.70579">
        <ele>404.9</ele>
        <time>2023-04-08T09:25:02Z</time>
      </trkpt>
      <trkpt lat="48.22826" lon="6.70579">
        <ele>404.8</ele>
        <time>2023-04-08T09:25:04Z</time>
      </trkpt>
      <trkpt lat="48.22817" lon="6.70576">
        <ele>404</ele>
        <time>2023-04-08T09:25:26Z</time>
      </trkpt>
      <trkpt lat="48.22809" lon="6.70572">
        <ele>403.8</ele>
        <time>2023-04-08T09:25:48Z</time>
      </trkpt>
      <trkpt lat="48.22809" lon="6.70572">
        <ele>403.7</ele>
        <time>2023-04-08T09:25:49Z</time>
      </trkpt>
      <trkpt lat="48.22809" lon="6.70571">
        <ele>403.6</ele>
        <time>2023-04-08T09:25:52Z</time>
      </trkpt>
      <trkpt lat="48.22808" lon="6.70571">
        <ele>403.5</ele>
        <time>2023-04-08T09:25:53Z</time>
      </trkpt>
      <trkpt lat="48.22808" lon="6.70577">
        <ele>403.3</ele>
        <time>2023-04-08T09:26:12Z</time>
      </trkpt>
      <trkpt lat="48.22808" lon="6.70577">
        <ele>403.2</ele>
        <time>2023-04-08T09:26:13Z</time>
      </trkpt>
      <trkpt lat="48.2281" lon="6.70575">
        <ele>403.1</ele>
        <time>2023-04-08T09:26:21Z</time>
      </trkpt>
      <trkpt lat="48.2281" lon="6.70576">
        <ele>403</ele>
        <time>2023-04-08T09:26:22Z</time>
      </trkpt>
      <trkpt lat="48.22807" lon="6.70575">
        <ele>402.9</ele>
        <time>2023-04-08T09:26:53Z</time>
      </trkpt>
      <trkpt lat="48.22806" lon="6.70574">
        <ele>402.7</ele>
        <time>2023-04-08T09:26:54Z</time>
      </trkpt>
      <trkpt lat="48.22808" lon="6.70566">
        <ele>402.6</ele>
        <time>2023-04-08T09:27:04Z</time>
      </trkpt>
      <trkpt lat="48.22808" lon="6.70566">
        <ele>402.5</ele>
        <time>2023-04-08T09:27:06Z</time>
      </trkpt>
      <trkpt lat="48.22809" lon="6.70563">
        <ele>402.4</ele>
        <time>2023-04-08T09:27:11Z</time>
      </trkpt>
      <trkpt lat="48.22809" lon="6.70562">
        <ele>402.2</ele>
        <time>2023-04-08T09:27:15Z</time>
      </trkpt>
      <trkpt lat="48.22812" lon="6.70558">
        <ele>402.8</ele>
        <time>2023-04-08T09:27:25Z</time>
      </trkpt>
      <trkpt lat="48.22813" lon="6.70558">
        <ele>402.6</ele>
        <time>2023-04-08T09:27:26Z</time>
      </trkpt>
      <trkpt lat="48.22814" lon="6.70544">
        <ele>402.5</ele>
        <time>2023-04-08T09:27:39Z</time>
      </trkpt>
      <trkpt lat="48.22809" lon="6.70531">
        <ele>404.8</ele>
        <time>2023-04-08T09:27:50Z</time>
      </trkpt>
      <trkpt lat="48.22802" lon="6.70522">
        <ele>406.9</ele>
        <time>2023-04-08T09:28:05Z</time>
      </trkpt>
      <trkpt lat="48.22793" lon="6.7052">
        <ele>408</ele>
        <time>2023-04-08T09:28:13Z</time>
      </trkpt>
      <trkpt lat="48.22788" lon="6.70508">
        <ele>409.6</ele>
        <time>2023-04-08T09:28:24Z</time>
      </trkpt>
      <trkpt lat="48.22788" lon="6.70506">
        <ele>409.6</ele>
        <time>2023-04-08T09:28:31Z</time>
      </trkpt>
      <trkpt lat="48.22788" lon="6.70506">
        <ele>409.7</ele>
        <time>2023-04-08T09:28:37Z</time>
      </trkpt>
      <trkpt lat="48.2279" lon="6.70491">
        <ele>409.8</ele>
        <time>2023-04-08T09:28:45Z</time>
      </trkpt>
      <trkpt lat="48.22791" lon="6.70477">
        <ele>410</ele>
        <time>2023-04-08T09:28:53Z</time>
      </trkpt>
      <trkpt lat="48.22793" lon="6.70469">
        <ele>410.1</ele>
        <time>2023-04-08T09:29:13Z</time>
      </trkpt>
      <trkpt lat="48.22793" lon="6.70468">
        <ele>410.1</ele>
        <time>2023-04-08T09:29:14Z</time>
      </trkpt>
      <trkpt lat="48.22796" lon="6.70455">
        <ele>410.3</ele>
        <time>2023-04-08T09:29:24Z</time>
      </trkpt>
      <trkpt lat="48.22797" lon="6.7044">
        <ele>410.5</ele>
        <time>2023-04-08T09:29:32Z</time>
      </trkpt>
      <trkpt lat="48.22801" lon="6.70425">
        <ele>410.6</ele>
        <time>2023-04-08T09:29:40Z</time>
      </trkpt>
      <trkpt lat="48.22805" lon="6.70413">
        <ele>410.8</ele>
        <time>2023-04-08T09:29:47Z</time>
      </trkpt>
      <trkpt lat="48.2281" lon="6.70401">
        <ele>411</ele>
        <time>2023-04-08T09:29:55Z</time>
      </trkpt>
      <trkpt lat="48.22817" lon="6.70392">
        <ele>411</ele>
        <time>2023-04-08T09:30:05Z</time>
      </trkpt>
      <trkpt lat="48.22819" lon="6.70378">
        <ele>411</ele>
        <time>2023-04-08T09:30:14Z</time>
      </trkpt>
      <trkpt lat="48.22828" lon="6.7038">
        <ele>410.8</ele>
        <time>2023-04-08T09:30:21Z</time>
      </trkpt>
      <trkpt lat="48.22839" lon="6.70383">
        <ele>410.5</ele>
        <time>2023-04-08T09:30:29Z</time>
      </trkpt>
      <trkpt lat="48.22848" lon="6.70384">
        <ele>410.2</ele>
        <time>2023-04-08T09:30:35Z</time>
      </trkpt>
      <trkpt lat="48.22858" lon="6.70385">
        <ele>409.8</ele>
        <time>2023-04-08T09:30:49Z</time>
      </trkpt>
      <trkpt lat="48.22868" lon="6.70384">
        <ele>409.4</ele>
        <time>2023-04-08T09:30:57Z</time>
      </trkpt>
      <trkpt lat="48.22878" lon="6.70383">
        <ele>409.1</ele>
        <time>2023-04-08T09:31:04Z</time>
      </trkpt>
      <trkpt lat="48.22888" lon="6.7038">
        <ele>408.8</ele>
        <time>2023-04-08T09:31:12Z</time>
      </trkpt>
      <trkpt lat="48.22899" lon="6.70378">
        <ele>408.6</ele>
        <time>2023-04-08T09:31:21Z</time>
      </trkpt>
      <trkpt lat="48.22907" lon="6.70375">
        <ele>408.4</ele>
        <time>2023-04-08T09:31:27Z</time>
      </trkpt>
      <trkpt lat="48.22917" lon="6.70371">
        <ele>408.3</ele>
        <time>2023-04-08T09:31:35Z</time>
      </trkpt>
      <trkpt lat="48.22926" lon="6.70367">
        <ele>408.2</ele>
        <time>2023-04-08T09:31:43Z</time>
      </trkpt>
      <trkpt lat="48.22935" lon="6.70362">
        <ele>408.1</ele>
        <time>2023-04-08T09:31:55Z</time>
      </trkpt>
      <trkpt lat="48.22944" lon="6.70358">
        <ele>408.1</ele>
        <time>2023-04-08T09:32:04Z</time>
      </trkpt>
      <trkpt lat="48.22954" lon="6.70354">
        <ele>408.1</ele>
        <time>2023-04-08T09:32:11Z</time>
      </trkpt>
      <trkpt lat="48.22961" lon="6.70345">
        <ele>408.1</ele>
        <time>2023-04-08T09:32:23Z</time>
      </trkpt>
      <trkpt lat="48.22966" lon="6.70333">
        <ele>408.1</ele>
        <time>2023-04-08T09:32:29Z</time>
      </trkpt>
      <trkpt lat="48.22975" lon="6.70322">
        <ele>408.3</ele>
        <time>2023-04-08T09:32:38Z</time>
      </trkpt>
      <trkpt lat="48.22983" lon="6.70317">
        <ele>408.5</ele>
        <time>2023-04-08T09:32:43Z</time>
      </trkpt>
      <trkpt lat="48.22991" lon="6.7031">
        <ele>408.9</ele>
        <time>2023-04-08T09:32:49Z</time>
      </trkpt>
      <trkpt lat="48.22998" lon="6.703">
        <ele>409.3</ele>
        <time>2023-04-08T09:32:56Z</time>
      </trkpt>
      <trkpt lat="48.23004" lon="6.70287">
        <ele>409.7</ele>
        <time>2023-04-08T09:33:03Z</time>
      </trkpt>
      <trkpt lat="48.2301" lon="6.70276">
        <ele>410</ele>
        <time>2023-04-08T09:33:10Z</time>
      </trkpt>
      <trkpt lat="48.23019" lon="6.70271">
        <ele>410.3</ele>
        <time>2023-04-08T09:33:22Z</time>
      </trkpt>
      <trkpt lat="48.23024" lon="6.7026">
        <ele>410.4</ele>
        <time>2023-04-08T09:33:32Z</time>
      </trkpt>
      <trkpt lat="48.23029" lon="6.70248">
        <ele>410.2</ele>
        <time>2023-04-08T09:33:40Z</time>
      </trkpt>
      <trkpt lat="48.23037" lon="6.7024">
        <ele>409.8</ele>
        <time>2023-04-08T09:33:47Z</time>
      </trkpt>
      <trkpt lat="48.23046" lon="6.70238">
        <ele>409.3</ele>
        <time>2023-04-08T09:33:53Z</time>
      </trkpt>
      <trkpt lat="48.23055" lon="6.70236">
        <ele>408.5</ele>
        <time>2023-04-08T09:33:59Z</time>
      </trkpt>
      <trkpt lat="48.23064" lon="6.70235">
        <ele>407.7</ele>
        <time>2023-04-08T09:34:05Z</time>
      </trkpt>
      <trkpt lat="48.23074" lon="6.70237">
        <ele>406.8</ele>
        <time>2023-04-08T09:34:11Z</time>
      </trkpt>
      <trkpt lat="48.23085" lon="6.70235">
        <ele>405.9</ele>
        <time>2023-04-08T09:34:18Z</time>
      </trkpt>
      <trkpt lat="48.23093" lon="6.70228">
        <ele>405.1</ele>
        <time>2023-04-08T09:34:26Z</time>
      </trkpt>
      <trkpt lat="48.23102" lon="6.7022">
        <ele>404.4</ele>
        <time>2023-04-08T09:34:34Z</time>
      </trkpt>
      <trkpt lat="48.23109" lon="6.70211">
        <ele>403.7</ele>
        <time>2023-04-08T09:34:41Z</time>
      </trkpt>
      <trkpt lat="48.23114" lon="6.702">
        <ele>403.1</ele>
        <time>2023-04-08T09:34:50Z</time>
      </trkpt>
      <trkpt lat="48.23123" lon="6.70193">
        <ele>402.5</ele>
        <time>2023-04-08T09:34:57Z</time>
      </trkpt>
      <trkpt lat="48.23132" lon="6.70187">
        <ele>402.1</ele>
        <time>2023-04-08T09:35:03Z</time>
      </trkpt>
      <trkpt lat="48.23141" lon="6.70182">
        <ele>401.7</ele>
        <time>2023-04-08T09:35:12Z</time>
      </trkpt>
      <trkpt lat="48.2315" lon="6.70175">
        <ele>401.4</ele>
        <time>2023-04-08T09:35:21Z</time>
      </trkpt>
      <trkpt lat="48.23158" lon="6.70169">
        <ele>401.2</ele>
        <time>2023-04-08T09:35:28Z</time>
      </trkpt>
      <trkpt lat="48.23167" lon="6.70163">
        <ele>401</ele>
        <time>2023-04-08T09:35:35Z</time>
      </trkpt>
      <trkpt lat="48.23174" lon="6.70153">
        <ele>400.7</ele>
        <time>2023-04-08T09:35:44Z</time>
      </trkpt>
      <trkpt lat="48.2318" lon="6.70143">
        <ele>400.5</ele>
        <time>2023-04-08T09:35:52Z</time>
      </trkpt>
      <trkpt lat="48.23185" lon="6.7013">
        <ele>400.3</ele>
        <time>2023-04-08T09:36:01Z</time>
      </trkpt>
      <trkpt lat="48.2319" lon="6.70119">
        <ele>400.2</ele>
        <time>2023-04-08T09:36:09Z</time>
      </trkpt>
      <trkpt lat="48.23199" lon="6.7011">
        <ele>400</ele>
        <time>2023-04-08T09:36:17Z</time>
      </trkpt>
      <trkpt lat="48.23209" lon="6.70106">
        <ele>399.9</ele>
        <time>2023-04-08T09:36:24Z</time>
      </trkpt>
      <trkpt lat="48.23217" lon="6.70098">
        <ele>399.8</ele>
        <time>2023-04-08T09:36:33Z</time>
      </trkpt>
      <trkpt lat="48.23226" lon="6.70092">
        <ele>399.6</ele>
        <time>2023-04-08T09:36:39Z</time>
      </trkpt>
      <trkpt lat="48.23233" lon="6.70082">
        <ele>399.4</ele>
        <time>2023-04-08T09:36:47Z</time>
      </trkpt>
      <trkpt lat="48.23242" lon="6.70075">
        <ele>399.2</ele>
        <time>2023-04-08T09:36:54Z</time>
      </trkpt>
      <trkpt lat="48.2325" lon="6.70066">
        <ele>399</ele>
        <time>2023-04-08T09:37:02Z</time>
      </trkpt>
      <trkpt lat="48.23259" lon="6.70058">
        <ele>398.9</ele>
        <time>2023-04-08T09:37:13Z</time>
      </trkpt>
      <trkpt lat="48.23267" lon="6.70049">
        <ele>398.8</ele>
        <time>2023-04-08T09:37:21Z</time>
      </trkpt>
      <trkpt lat="48.23275" lon="6.70041">
        <ele>398.6</ele>
        <time>2023-04-08T09:37:29Z</time>
      </trkpt>
      <trkpt lat="48.23282" lon="6.70033">
        <ele>398.4</ele>
        <time>2023-04-08T09:37:37Z</time>
      </trkpt>
      <trkpt lat="48.23289" lon="6.70022">
        <ele>398.2</ele>
        <time>2023-04-08T09:37:46Z</time>
      </trkpt>
      <trkpt lat="48.23298" lon="6.70015">
        <ele>397.9</ele>
        <time>2023-04-08T09:37:54Z</time>
      </trkpt>
      <trkpt lat="48.23307" lon="6.70008">
        <ele>397.7</ele>
        <time>2023-04-08T09:38:02Z</time>
      </trkpt>
      <trkpt lat="48.23315" lon="6.69999">
        <ele>397.5</ele>
        <time>2023-04-08T09:38:12Z</time>
      </trkpt>
      <trkpt lat="48.23323" lon="6.69994">
        <ele>397.5</ele>
        <time>2023-04-08T09:38:20Z</time>
      </trkpt>
      <trkpt lat="48.23332" lon="6.69989">
        <ele>397.5</ele>
        <time>2023-04-08T09:38:29Z</time>
      </trkpt>
      <trkpt lat="48.23341" lon="6.69982">
        <ele>397.6</ele>
        <time>2023-04-08T09:38:39Z</time>
      </trkpt>
      <trkpt lat="48.23348" lon="6.69974">
        <ele>397.7</ele>
        <time>2023-04-08T09:38:48Z</time>
      </trkpt>
      <trkpt lat="48.23355" lon="6.69965">
        <ele>397.8</ele>
        <time>2023-04-08T09:38:55Z</time>
      </trkpt>
      <trkpt lat="48.23362" lon="6.69953">
        <ele>397.9</ele>
        <time>2023-04-08T09:39:03Z</time>
      </trkpt>
      <trkpt lat="48.23371" lon="6.69948">
        <ele>398</ele>
        <time>2023-04-08T09:39:09Z</time>
      </trkpt>
      <trkpt lat="48.2338" lon="6.69942">
        <ele>398.1</ele>
        <time>2023-04-08T09:39:18Z</time>
      </trkpt>
      <trkpt lat="48.23389" lon="6.69936">
        <ele>398.2</ele>
        <time>2023-04-08T09:39:26Z</time>
      </trkpt>
      <trkpt lat="48.23398" lon="6.6993">
        <ele>398.2</ele>
        <time>2023-04-08T09:39:34Z</time>
      </trkpt>
      <trkpt lat="48.23407" lon="6.69923">
        <ele>398.2</ele>
        <time>2023-04-08T09:39:44Z</time>
      </trkpt>
      <trkpt lat="48.23415" lon="6.69918">
        <ele>398.1</ele>
        <time>2023-04-08T09:39:52Z</time>
      </trkpt>
      <trkpt lat="48.23424" lon="6.69914">
        <ele>397.8</ele>
        <time>2023-04-08T09:40:00Z</time>
      </trkpt>
      <trkpt lat="48.23433" lon="6.69909">
        <ele>397.6</ele>
        <time>2023-04-08T09:40:09Z</time>
      </trkpt>
      <trkpt lat="48.23443" lon="6.69905">
        <ele>397.3</ele>
        <time>2023-04-08T09:40:19Z</time>
      </trkpt>
      <trkpt lat="48.23452" lon="6.69903">
        <ele>397</ele>
        <time>2023-04-08T09:40:28Z</time>
      </trkpt>
      <trkpt lat="48.23461" lon="6.69898">
        <ele>396.7</ele>
        <time>2023-04-08T09:40:40Z</time>
      </trkpt>
      <trkpt lat="48.23468" lon="6.69887">
        <ele>396.5</ele>
        <time>2023-04-08T09:40:54Z</time>
      </trkpt>
      <trkpt lat="48.23475" lon="6.69883">
        <ele>396.3</ele>
        <time>2023-04-08T09:41:08Z</time>
      </trkpt>
      <trkpt lat="48.23475" lon="6.69883">
        <ele>396.3</ele>
        <time>2023-04-08T09:41:10Z</time>
      </trkpt>
      <trkpt lat="48.23481" lon="6.6988">
        <ele>396.1</ele>
        <time>2023-04-08T09:41:33Z</time>
      </trkpt>
      <trkpt lat="48.23481" lon="6.6988">
        <ele>396.1</ele>
        <time>2023-04-08T09:41:37Z</time>
      </trkpt>
      <trkpt lat="48.23487" lon="6.69889">
        <ele>395.8</ele>
        <time>2023-04-08T09:41:49Z</time>
      </trkpt>
      <trkpt lat="48.23497" lon="6.69892">
        <ele>395.4</ele>
        <time>2023-04-08T09:41:59Z</time>
      </trkpt>
      <trkpt lat="48.23504" lon="6.69882">
        <ele>395.1</ele>
        <time>2023-04-08T09:42:08Z</time>
      </trkpt>
      <trkpt lat="48.23511" lon="6.69872">
        <ele>394.8</ele>
        <time>2023-04-08T09:42:16Z</time>
      </trkpt>
      <trkpt lat="48.23515" lon="6.69859">
        <ele>394.7</ele>
        <time>2023-04-08T09:42:25Z</time>
      </trkpt>
      <trkpt lat="48.23522" lon="6.69847">
        <ele>394.6</ele>
        <time>2023-04-08T09:42:34Z</time>
      </trkpt>
      <trkpt lat="48.23526" lon="6.69834">
        <ele>394.6</ele>
        <time>2023-04-08T09:42:41Z</time>
      </trkpt>
      <trkpt lat="48.2353" lon="6.69821">
        <ele>394.7</ele>
        <time>2023-04-08T09:42:49Z</time>
      </trkpt>
      <trkpt lat="48.23534" lon="6.69809">
        <ele>394.7</ele>
        <time>2023-04-08T09:42:55Z</time>
      </trkpt>
      <trkpt lat="48.23535" lon="6.69804">
        <ele>394.7</ele>
        <time>2023-04-08T09:43:07Z</time>
      </trkpt>
      <trkpt lat="48.23535" lon="6.69804">
        <ele>394.7</ele>
        <time>2023-04-08T09:43:08Z</time>
      </trkpt>
      <trkpt lat="48.23543" lon="6.69796">
        <ele>394.7</ele>
        <time>2023-04-08T09:43:18Z</time>
      </trkpt>
      <trkpt lat="48.2355" lon="6.69788">
        <ele>394.8</ele>
        <time>2023-04-08T09:43:27Z</time>
      </trkpt>
      <trkpt lat="48.23558" lon="6.69778">
        <ele>394.7</ele>
        <time>2023-04-08T09:43:36Z</time>
      </trkpt>
      <trkpt lat="48.23565" lon="6.69766">
        <ele>394.5</ele>
        <time>2023-04-08T09:43:45Z</time>
      </trkpt>
      <trkpt lat="48.23569" lon="6.69754">
        <ele>394.1</ele>
        <time>2023-04-08T09:43:52Z</time>
      </trkpt>
      <trkpt lat="48.23574" lon="6.69743">
        <ele>393.7</ele>
        <time>2023-04-08T09:43:59Z</time>
      </trkpt>
      <trkpt lat="48.23579" lon="6.6973">
        <ele>393.1</ele>
        <time>2023-04-08T09:44:07Z</time>
      </trkpt>
      <trkpt lat="48.23586" lon="6.69719">
        <ele>392.5</ele>
        <time>2023-04-08T09:44:16Z</time>
      </trkpt>
      <trkpt lat="48.23592" lon="6.6971">
        <ele>392.1</ele>
        <time>2023-04-08T09:44:22Z</time>
      </trkpt>
      <trkpt lat="48.23599" lon="6.697">
        <ele>391.6</ele>
        <time>2023-04-08T09:44:29Z</time>
      </trkpt>
      <trkpt lat="48.23602" lon="6.69687">
        <ele>391.3</ele>
        <time>2023-04-08T09:44:38Z</time>
      </trkpt>
      <trkpt lat="48.23606" lon="6.69675">
        <ele>391.1</ele>
        <time>2023-04-08T09:44:49Z</time>
      </trkpt>
      <trkpt lat="48.23609" lon="6.69661">
        <ele>390.9</ele>
        <time>2023-04-08T09:44:59Z</time>
      </trkpt>
      <trkpt lat="48.23612" lon="6.69647">
        <ele>390.8</ele>
        <time>2023-04-08T09:45:05Z</time>
      </trkpt>
      <trkpt lat="48.23613" lon="6.69632">
        <ele>390.7</ele>
        <time>2023-04-08T09:45:15Z</time>
      </trkpt>
      <trkpt lat="48.23615" lon="6.69617">
        <ele>390.9</ele>
        <time>2023-04-08T09:45:21Z</time>
      </trkpt>
      <trkpt lat="48.23614" lon="6.69601">
        <ele>391.2</ele>
        <time>2023-04-08T09:45:29Z</time>
      </trkpt>
      <trkpt lat="48.23617" lon="6.69588">
        <ele>391.7</ele>
        <time>2023-04-08T09:45:39Z</time>
      </trkpt>
      <trkpt lat="48.23618" lon="6.69572">
        <ele>392.4</ele>
        <time>2023-04-08T09:45:48Z</time>
      </trkpt>
      <trkpt lat="48.23619" lon="6.69559">
        <ele>393.1</ele>
        <time>2023-04-08T09:45:57Z</time>
      </trkpt>
      <trkpt lat="48.23622" lon="6.69546">
        <ele>393.7</ele>
        <time>2023-04-08T09:46:04Z</time>
      </trkpt>
      <trkpt lat="48.23624" lon="6.69531">
        <ele>394.4</ele>
        <time>2023-04-08T09:46:09Z</time>
      </trkpt>
      <trkpt lat="48.23625" lon="6.69515">
        <ele>395.1</ele>
        <time>2023-04-08T09:46:19Z</time>
      </trkpt>
      <trkpt lat="48.23631" lon="6.69504">
        <ele>395.6</ele>
        <time>2023-04-08T09:46:28Z</time>
      </trkpt>
      <trkpt lat="48.23637" lon="6.69492">
        <ele>395.9</ele>
        <time>2023-04-08T09:46:34Z</time>
      </trkpt>
      <trkpt lat="48.2364" lon="6.69478">
        <ele>396.2</ele>
        <time>2023-04-08T09:46:42Z</time>
      </trkpt>
      <trkpt lat="48.23642" lon="6.69464">
        <ele>396.3</ele>
        <time>2023-04-08T09:46:51Z</time>
      </trkpt>
      <trkpt lat="48.23644" lon="6.69451">
        <ele>396.5</ele>
        <time>2023-04-08T09:47:01Z</time>
      </trkpt>
      <trkpt lat="48.23644" lon="6.69436">
        <ele>396.6</ele>
        <time>2023-04-08T09:47:11Z</time>
      </trkpt>
      <trkpt lat="48.23646" lon="6.69421">
        <ele>396.7</ele>
        <time>2023-04-08T09:47:18Z</time>
      </trkpt>
      <trkpt lat="48.23646" lon="6.69404">
        <ele>396.7</ele>
        <time>2023-04-08T09:47:26Z</time>
      </trkpt>
      <trkpt lat="48.23648" lon="6.6939">
        <ele>396.6</ele>
        <time>2023-04-08T09:47:35Z</time>
      </trkpt>
      <trkpt lat="48.23648" lon="6.69376">
        <ele>396.5</ele>
        <time>2023-04-08T09:47:45Z</time>
      </trkpt>
      <trkpt lat="48.23646" lon="6.69362">
        <ele>396.4</ele>
        <time>2023-04-08T09:47:52Z</time>
      </trkpt>
      <trkpt lat="48.23644" lon="6.69347">
        <ele>396.4</ele>
        <time>2023-04-08T09:47:57Z</time>
      </trkpt>
      <trkpt lat="48.23649" lon="6.69332">
        <ele>396.3</ele>
        <time>2023-04-08T09:48:03Z</time>
      </trkpt>
      <trkpt lat="48.23648" lon="6.69318">
        <ele>396</ele>
        <time>2023-04-08T09:48:10Z</time>
      </trkpt>
      <trkpt lat="48.2365" lon="6.69304">
        <ele>395.5</ele>
        <time>2023-04-08T09:48:19Z</time>
      </trkpt>
      <trkpt lat="48.23646" lon="6.6929">
        <ele>394.7</ele>
        <time>2023-04-08T09:48:28Z</time>
      </trkpt>
      <trkpt lat="48.23646" lon="6.69276">
        <ele>393.8</ele>
        <time>2023-04-08T09:48:36Z</time>
      </trkpt>
      <trkpt lat="48.23644" lon="6.69261">
        <ele>392.9</ele>
        <time>2023-04-08T09:48:42Z</time>
      </trkpt>
      <trkpt lat="48.23641" lon="6.69248">
        <ele>392.2</ele>
        <time>2023-04-08T09:48:46Z</time>
      </trkpt>
      <trkpt lat="48.23637" lon="6.69235">
        <ele>391.4</ele>
        <time>2023-04-08T09:48:51Z</time>
      </trkpt>
      <trkpt lat="48.23632" lon="6.69222">
        <ele>390.8</ele>
        <time>2023-04-08T09:49:01Z</time>
      </trkpt>
      <trkpt lat="48.23628" lon="6.6921">
        <ele>390.2</ele>
        <time>2023-04-08T09:49:09Z</time>
      </trkpt>
      <trkpt lat="48.23623" lon="6.69198">
        <ele>389.6</ele>
        <time>2023-04-08T09:49:16Z</time>
      </trkpt>
      <trkpt lat="48.23617" lon="6.69186">
        <ele>389</ele>
        <time>2023-04-08T09:49:22Z</time>
      </trkpt>
      <trkpt lat="48.23624" lon="6.69176">
        <ele>388.6</ele>
        <time>2023-04-08T09:49:30Z</time>
      </trkpt>
      <trkpt lat="48.2363" lon="6.69166">
        <ele>388.2</ele>
        <time>2023-04-08T09:49:38Z</time>
      </trkpt>
      <trkpt lat="48.23629" lon="6.69151">
        <ele>387.9</ele>
        <time>2023-04-08T09:49:46Z</time>
      </trkpt>
      <trkpt lat="48.23625" lon="6.69137">
        <ele>387.7</ele>
        <time>2023-04-08T09:49:51Z</time>
      </trkpt>
      <trkpt lat="48.23623" lon="6.69122">
        <ele>387.5</ele>
        <time>2023-04-08T09:49:57Z</time>
      </trkpt>
      <trkpt lat="48.23623" lon="6.69108">
        <ele>387.5</ele>
        <time>2023-04-08T09:50:06Z</time>
      </trkpt>
      <trkpt lat="48.23623" lon="6.69092">
        <ele>387.6</ele>
        <time>2023-04-08T09:50:18Z</time>
      </trkpt>
      <trkpt lat="48.23613" lon="6.69087">
        <ele>387.7</ele>
        <time>2023-04-08T09:50:22Z</time>
      </trkpt>
      <trkpt lat="48.23607" lon="6.69076">
        <ele>387.8</ele>
        <time>2023-04-08T09:50:37Z</time>
      </trkpt>
      <trkpt lat="48.23605" lon="6.69062">
        <ele>387.9</ele>
        <time>2023-04-08T09:50:58Z</time>
      </trkpt>
      <trkpt lat="48.23615" lon="6.69062">
        <ele>388</ele>
        <time>2023-04-08T09:51:20Z</time>
      </trkpt>
      <trkpt lat="48.23624" lon="6.6906">
        <ele>387.9</ele>
        <time>2023-04-08T09:51:26Z</time>
      </trkpt>
      <trkpt lat="48.23633" lon="6.69053">
        <ele>387.7</ele>
        <time>2023-04-08T09:51:35Z</time>
      </trkpt>
      <trkpt lat="48.23639" lon="6.69043">
        <ele>387.4</ele>
        <time>2023-04-08T09:51:43Z</time>
      </trkpt>
      <trkpt lat="48.23643" lon="6.6903">
        <ele>387.1</ele>
        <time>2023-04-08T09:51:56Z</time>
      </trkpt>
      <trkpt lat="48.23646" lon="6.69016">
        <ele>386.9</ele>
        <time>2023-04-08T09:52:06Z</time>
      </trkpt>
      <trkpt lat="48.23647" lon="6.69002">
        <ele>386.6</ele>
        <time>2023-04-08T09:52:18Z</time>
      </trkpt>
      <trkpt lat="48.23653" lon="6.68991">
        <ele>386.4</ele>
        <time>2023-04-08T09:52:31Z</time>
      </trkpt>
      <trkpt lat="48.23655" lon="6.68977">
        <ele>386.1</ele>
        <time>2023-04-08T09:52:41Z</time>
      </trkpt>
      <trkpt lat="48.23657" lon="6.68964">
        <ele>385.8</ele>
        <time>2023-04-08T09:52:50Z</time>
      </trkpt>
      <trkpt lat="48.23655" lon="6.68948">
        <ele>385.5</ele>
        <time>2023-04-08T09:52:56Z</time>
      </trkpt>
      <trkpt lat="48.23656" lon="6.68935">
        <ele>385.2</ele>
        <time>2023-04-08T09:53:05Z</time>
      </trkpt>
      <trkpt lat="48.2366" lon="6.68922">
        <ele>385.1</ele>
        <time>2023-04-08T09:53:18Z</time>
      </trkpt>
      <trkpt lat="48.23662" lon="6.68909">
        <ele>384.9</ele>
        <time>2023-04-08T09:53:29Z</time>
      </trkpt>
      <trkpt lat="48.23662" lon="6.68895">
        <ele>384.7</ele>
        <time>2023-04-08T09:53:42Z</time>
      </trkpt>
      <trkpt lat="48.23663" lon="6.68879">
        <ele>384.4</ele>
        <time>2023-04-08T09:53:49Z</time>
      </trkpt>
      <trkpt lat="48.2366" lon="6.68861">
        <ele>384.2</ele>
        <time>2023-04-08T09:53:53Z</time>
      </trkpt>
      <trkpt lat="48.23666" lon="6.6885">
        <ele>383.9</ele>
        <time>2023-04-08T09:53:59Z</time>
      </trkpt>
      <trkpt lat="48.23661" lon="6.68837">
        <ele>383.5</ele>
        <time>2023-04-08T09:54:09Z</time>
      </trkpt>
      <trkpt lat="48.23666" lon="6.68824">
        <ele>383.1</ele>
        <time>2023-04-08T09:54:17Z</time>
      </trkpt>
      <trkpt lat="48.2367" lon="6.68812">
        <ele>382.6</ele>
        <time>2023-04-08T09:54:24Z</time>
      </trkpt>
      <trkpt lat="48.23674" lon="6.68798">
        <ele>382.3</ele>
        <time>2023-04-08T09:54:32Z</time>
      </trkpt>
      <trkpt lat="48.23675" lon="6.68784">
        <ele>382.1</ele>
        <time>2023-04-08T09:54:42Z</time>
      </trkpt>
      <trkpt lat="48.23677" lon="6.68769">
        <ele>382</ele>
        <time>2023-04-08T09:54:51Z</time>
      </trkpt>
      <trkpt lat="48.23677" lon="6.68755">
        <ele>381.8</ele>
        <time>2023-04-08T09:54:59Z</time>
      </trkpt>
      <trkpt lat="48.23678" lon="6.68741">
        <ele>381.7</ele>
        <time>2023-04-08T09:55:08Z</time>
      </trkpt>
      <trkpt lat="48.23677" lon="6.68727">
        <ele>381.7</ele>
        <time>2023-04-08T09:55:13Z</time>
      </trkpt>
      <trkpt lat="48.23681" lon="6.68713">
        <ele>381.6</ele>
        <time>2023-04-08T09:55:22Z</time>
      </trkpt>
      <trkpt lat="48.2368" lon="6.68697">
        <ele>381.5</ele>
        <time>2023-04-08T09:55:30Z</time>
      </trkpt>
      <trkpt lat="48.2368" lon="6.68681">
        <ele>381.3</ele>
        <time>2023-04-08T09:55:41Z</time>
      </trkpt>
      <trkpt lat="48.23682" lon="6.68666">
        <ele>381.2</ele>
        <time>2023-04-08T09:55:56Z</time>
      </trkpt>
      <trkpt lat="48.23688" lon="6.68654">
        <ele>381.1</ele>
        <time>2023-04-08T09:56:07Z</time>
      </trkpt>
      <trkpt lat="48.23694" lon="6.68641">
        <ele>381</ele>
        <time>2023-04-08T09:56:20Z</time>
      </trkpt>
      <trkpt lat="48.23695" lon="6.68626">
        <ele>381</ele>
        <time>2023-04-08T09:56:27Z</time>
      </trkpt>
      <trkpt lat="48.23692" lon="6.68611">
        <ele>381</ele>
        <time>2023-04-08T09:56:34Z</time>
      </trkpt>
      <trkpt lat="48.23695" lon="6.68595">
        <ele>380.9</ele>
        <time>2023-04-08T09:56:39Z</time>
      </trkpt>
      <trkpt lat="48.23696" lon="6.68575">
        <ele>380.8</ele>
        <time>2023-04-08T09:56:48Z</time>
      </trkpt>
      <trkpt lat="48.23693" lon="6.68561">
        <ele>380.7</ele>
        <time>2023-04-08T09:56:58Z</time>
      </trkpt>
      <trkpt lat="48.23692" lon="6.68545">
        <ele>380.6</ele>
        <time>2023-04-08T09:57:11Z</time>
      </trkpt>
      <trkpt lat="48.23693" lon="6.68531">
        <ele>380.6</ele>
        <time>2023-04-08T09:57:22Z</time>
      </trkpt>
      <trkpt lat="48.23699" lon="6.6852">
        <ele>380.6</ele>
        <time>2023-04-08T09:57:32Z</time>
      </trkpt>
      <trkpt lat="48.23692" lon="6.68511">
        <ele>380.6</ele>
        <time>2023-04-08T09:57:37Z</time>
      </trkpt>
      <trkpt lat="48.23687" lon="6.68499">
        <ele>380.7</ele>
        <time>2023-04-08T09:57:44Z</time>
      </trkpt>
      <trkpt lat="48.23681" lon="6.68487">
        <ele>381.2</ele>
        <time>2023-04-08T09:57:52Z</time>
      </trkpt>
      <trkpt lat="48.23673" lon="6.68478">
        <ele>382.3</ele>
        <time>2023-04-08T09:57:55Z</time>
      </trkpt>
      <trkpt lat="48.23666" lon="6.68468">
        <ele>383.6</ele>
        <time>2023-04-08T09:58:00Z</time>
      </trkpt>
      <trkpt lat="48.23658" lon="6.68461">
        <ele>384.8</ele>
        <time>2023-04-08T09:58:08Z</time>
      </trkpt>
      <trkpt lat="48.2365" lon="6.68453">
        <ele>387.5</ele>
        <time>2023-04-08T09:58:19Z</time>
      </trkpt>
      <trkpt lat="48.23645" lon="6.68439">
        <ele>389.2</ele>
        <time>2023-04-08T09:58:28Z</time>
      </trkpt>
      <trkpt lat="48.23644" lon="6.68435">
        <ele>389.6</ele>
        <time>2023-04-08T09:58:35Z</time>
      </trkpt>
      <trkpt lat="48.23643" lon="6.68434">
        <ele>389.7</ele>
        <time>2023-04-08T09:58:36Z</time>
      </trkpt>
      <trkpt lat="48.23641" lon="6.68432">
        <ele>390.1</ele>
        <time>2023-04-08T09:58:43Z</time>
      </trkpt>
      <trkpt lat="48.23641" lon="6.68431">
        <ele>390.2</ele>
        <time>2023-04-08T09:58:44Z</time>
      </trkpt>
      <trkpt lat="48.23639" lon="6.68418">
        <ele>391.4</ele>
        <time>2023-04-08T09:59:01Z</time>
      </trkpt>
      <trkpt lat="48.23638" lon="6.68406">
        <ele>392.3</ele>
        <time>2023-04-08T09:59:11Z</time>
      </trkpt>
      <trkpt lat="48.23638" lon="6.68405">
        <ele>392.3</ele>
        <time>2023-04-08T09:59:16Z</time>
      </trkpt>
      <trkpt lat="48.23639" lon="6.68403">
        <ele>392.5</ele>
        <time>2023-04-08T09:59:21Z</time>
      </trkpt>
      <trkpt lat="48.2364" lon="6.68402">
        <ele>392.7</ele>
        <time>2023-04-08T09:59:22Z</time>
      </trkpt>
      <trkpt lat="48.23641" lon="6.68389">
        <ele>393.5</ele>
        <time>2023-04-08T09:59:33Z</time>
      </trkpt>
      <trkpt lat="48.23643" lon="6.68375">
        <ele>394.2</ele>
        <time>2023-04-08T09:59:44Z</time>
      </trkpt>
      <trkpt lat="48.23644" lon="6.68361">
        <ele>394.8</ele>
        <time>2023-04-08T09:59:51Z</time>
      </trkpt>
      <trkpt lat="48.23642" lon="6.68348">
        <ele>395.3</ele>
        <time>2023-04-08T10:00:01Z</time>
      </trkpt>
      <trkpt lat="48.23648" lon="6.68335">
        <ele>395.9</ele>
        <time>2023-04-08T10:00:13Z</time>
      </trkpt>
      <trkpt lat="48.23653" lon="6.68324">
        <ele>396.5</ele>
        <time>2023-04-08T10:00:23Z</time>
      </trkpt>
      <trkpt lat="48.23652" lon="6.68309">
        <ele>397.2</ele>
        <time>2023-04-08T10:00:36Z</time>
      </trkpt>
      <trkpt lat="48.2366" lon="6.68299">
        <ele>398.1</ele>
        <time>2023-04-08T10:00:44Z</time>
      </trkpt>
      <trkpt lat="48.23663" lon="6.68285">
        <ele>399</ele>
        <time>2023-04-08T10:00:52Z</time>
      </trkpt>
      <trkpt lat="48.23663" lon="6.6827">
        <ele>400.2</ele>
        <time>2023-04-08T10:01:01Z</time>
      </trkpt>
      <trkpt lat="48.23668" lon="6.68258">
        <ele>401.3</ele>
        <time>2023-04-08T10:01:10Z</time>
      </trkpt>
      <trkpt lat="48.23665" lon="6.68244">
        <ele>402.6</ele>
        <time>2023-04-08T10:01:19Z</time>
      </trkpt>
      <trkpt lat="48.23658" lon="6.68234">
        <ele>403.9</ele>
        <time>2023-04-08T10:01:26Z</time>
      </trkpt>
      <trkpt lat="48.23652" lon="6.68223">
        <ele>405</ele>
        <time>2023-04-08T10:01:36Z</time>
      </trkpt>
      <trkpt lat="48.23647" lon="6.68212">
        <ele>406.1</ele>
        <time>2023-04-08T10:01:47Z</time>
      </trkpt>
      <trkpt lat="48.23642" lon="6.682">
        <ele>407.1</ele>
        <time>2023-04-08T10:01:57Z</time>
      </trkpt>
      <trkpt lat="48.23635" lon="6.68188">
        <ele>408.1</ele>
        <time>2023-04-08T10:02:06Z</time>
      </trkpt>
      <trkpt lat="48.23632" lon="6.68175">
        <ele>409</ele>
        <time>2023-04-08T10:02:15Z</time>
      </trkpt>
      <trkpt lat="48.23629" lon="6.6816">
        <ele>410</ele>
        <time>2023-04-08T10:02:25Z</time>
      </trkpt>
      <trkpt lat="48.23626" lon="6.68147">
        <ele>410.8</ele>
        <time>2023-04-08T10:02:33Z</time>
      </trkpt>
      <trkpt lat="48.23618" lon="6.68139">
        <ele>411.6</ele>
        <time>2023-04-08T10:02:43Z</time>
      </trkpt>
      <trkpt lat="48.23611" lon="6.68129">
        <ele>412.3</ele>
        <time>2023-04-08T10:02:51Z</time>
      </trkpt>
      <trkpt lat="48.23605" lon="6.68117">
        <ele>412.9</ele>
        <time>2023-04-08T10:03:00Z</time>
      </trkpt>
      <trkpt lat="48.23602" lon="6.68109">
        <ele>413.2</ele>
        <time>2023-04-08T10:03:07Z</time>
      </trkpt>
      <trkpt lat="48.23602" lon="6.68109">
        <ele>413.2</ele>
        <time>2023-04-08T10:03:13Z</time>
      </trkpt>
      <trkpt lat="48.23602" lon="6.68109">
        <ele>413.2</ele>
        <time>2023-04-08T10:03:13Z</time>
      </trkpt>
    </trkseg>
  </trk>
</gpx>